<?xml version="1.0" encoding="UTF-8" standalone="no" ?>
<gpx xmlns="http://www.topografix.com/GPX/1/1" xmlns:xsi="http://www.w3.org/2001/XMLSchema-instance" xsi:schemaLocation="http://www.topografix.com/GPX/1/1 http://www.topografix.com/GPX/1/1/gpx.xsd" version="1.1" creator="VisuGPX - https://www.visugpx.com">
  <metadata>
    <name>Rando Damiatte</name>
    <desc><![CDATA[Rando sur le sentier de la chapelle]]></desc>
  </metadata>
  <trk>
    <name><![CDATA[Rando Damiatte]]></name>
    <trkseg>
      <trkpt lat="43.6546" lon="1.97765">
        <ele>145.05</ele>
        <time>2015-05-16T07:36:26Z</time>
      </trkpt>
      <trkpt lat="43.6546" lon="1.97765">
        <ele>145.05</ele>
        <time>2015-05-16T07:36:27Z</time>
      </trkpt>
      <trkpt lat="43.65458" lon="1.97759">
        <ele>144.51</ele>
        <time>2015-05-16T07:36:47Z</time>
      </trkpt>
      <trkpt lat="43.65459" lon="1.9774">
        <ele>144.49</ele>
        <time>2015-05-16T07:37:04Z</time>
      </trkpt>
      <trkpt lat="43.65468" lon="1.97723">
        <ele>144.42</ele>
        <time>2015-05-16T07:37:23Z</time>
      </trkpt>
      <trkpt lat="43.65475" lon="1.97709">
        <ele>144.39</ele>
        <time>2015-05-16T07:37:37Z</time>
      </trkpt>
      <trkpt lat="43.65478" lon="1.97705">
        <ele>144.35</ele>
        <time>2015-05-16T07:37:41Z</time>
      </trkpt>
      <trkpt lat="43.65487" lon="1.97687">
        <ele>144.27</ele>
        <time>2015-05-16T07:37:57Z</time>
      </trkpt>
      <trkpt lat="43.65494" lon="1.97669">
        <ele>144.33</ele>
        <time>2015-05-16T07:38:11Z</time>
      </trkpt>
      <trkpt lat="43.65502" lon="1.97653">
        <ele>144.55</ele>
        <time>2015-05-16T07:38:25Z</time>
      </trkpt>
      <trkpt lat="43.65503" lon="1.9765">
        <ele>144.57</ele>
        <time>2015-05-16T07:38:28Z</time>
      </trkpt>
      <trkpt lat="43.65507" lon="1.97643">
        <ele>144.7</ele>
        <time>2015-05-16T07:38:33Z</time>
      </trkpt>
      <trkpt lat="43.65515" lon="1.97625">
        <ele>144.16</ele>
        <time>2015-05-16T07:38:46Z</time>
      </trkpt>
      <trkpt lat="43.65521" lon="1.97612">
        <ele>144.23</ele>
        <time>2015-05-16T07:38:55Z</time>
      </trkpt>
      <trkpt lat="43.65524" lon="1.97605">
        <ele>144.22</ele>
        <time>2015-05-16T07:39:00Z</time>
      </trkpt>
      <trkpt lat="43.65525" lon="1.97602">
        <ele>144.17</ele>
        <time>2015-05-16T07:39:02Z</time>
      </trkpt>
      <trkpt lat="43.65528" lon="1.97595">
        <ele>144.16</ele>
        <time>2015-05-16T07:39:06Z</time>
      </trkpt>
      <trkpt lat="43.65532" lon="1.97584">
        <ele>144.11</ele>
        <time>2015-05-16T07:39:13Z</time>
      </trkpt>
      <trkpt lat="43.65534" lon="1.97574">
        <ele>144.06</ele>
        <time>2015-05-16T07:39:19Z</time>
      </trkpt>
      <trkpt lat="43.65535" lon="1.9757">
        <ele>144.11</ele>
        <time>2015-05-16T07:39:22Z</time>
      </trkpt>
      <trkpt lat="43.6554" lon="1.97543">
        <ele>144.34</ele>
        <time>2015-05-16T07:39:39Z</time>
      </trkpt>
      <trkpt lat="43.65541" lon="1.97536">
        <ele>144.23</ele>
        <time>2015-05-16T07:39:46Z</time>
      </trkpt>
      <trkpt lat="43.65542" lon="1.97532">
        <ele>144.21</ele>
        <time>2015-05-16T07:39:48Z</time>
      </trkpt>
      <trkpt lat="43.65548" lon="1.97499">
        <ele>143.72</ele>
        <time>2015-05-16T07:40:06Z</time>
      </trkpt>
      <trkpt lat="43.65555" lon="1.97472">
        <ele>144.05</ele>
        <time>2015-05-16T07:40:22Z</time>
      </trkpt>
      <trkpt lat="43.65565" lon="1.97444">
        <ele>144.1</ele>
        <time>2015-05-16T07:40:39Z</time>
      </trkpt>
      <trkpt lat="43.65574" lon="1.97421">
        <ele>144.28</ele>
        <time>2015-05-16T07:40:54Z</time>
      </trkpt>
      <trkpt lat="43.65588" lon="1.97394">
        <ele>143.92</ele>
        <time>2015-05-16T07:41:12Z</time>
      </trkpt>
      <trkpt lat="43.65599" lon="1.97383">
        <ele>144.16</ele>
        <time>2015-05-16T07:41:21Z</time>
      </trkpt>
      <trkpt lat="43.65607" lon="1.97359">
        <ele>144.18</ele>
        <time>2015-05-16T07:41:38Z</time>
      </trkpt>
      <trkpt lat="43.65619" lon="1.97332">
        <ele>143.7</ele>
        <time>2015-05-16T07:41:57Z</time>
      </trkpt>
      <trkpt lat="43.6562" lon="1.9733">
        <ele>143.66</ele>
        <time>2015-05-16T07:41:59Z</time>
      </trkpt>
      <trkpt lat="43.65624" lon="1.97321">
        <ele>143.34</ele>
        <time>2015-05-16T07:42:05Z</time>
      </trkpt>
      <trkpt lat="43.65627" lon="1.97314">
        <ele>143.21</ele>
        <time>2015-05-16T07:42:09Z</time>
      </trkpt>
      <trkpt lat="43.65639" lon="1.97295">
        <ele>142.68</ele>
        <time>2015-05-16T07:42:23Z</time>
      </trkpt>
      <trkpt lat="43.65653" lon="1.9726">
        <ele>142.31</ele>
        <time>2015-05-16T07:42:44Z</time>
      </trkpt>
      <trkpt lat="43.65669" lon="1.97233">
        <ele>141.97</ele>
        <time>2015-05-16T07:43:03Z</time>
      </trkpt>
      <trkpt lat="43.65691" lon="1.97216">
        <ele>141.98</ele>
        <time>2015-05-16T07:43:21Z</time>
      </trkpt>
      <trkpt lat="43.65704" lon="1.972">
        <ele>142.15</ele>
        <time>2015-05-16T07:43:37Z</time>
      </trkpt>
      <trkpt lat="43.65713" lon="1.97181">
        <ele>141.97</ele>
        <time>2015-05-16T07:43:55Z</time>
      </trkpt>
      <trkpt lat="43.65729" lon="1.97161">
        <ele>142.27</ele>
        <time>2015-05-16T07:44:12Z</time>
      </trkpt>
      <trkpt lat="43.6574" lon="1.97139">
        <ele>142.56</ele>
        <time>2015-05-16T07:44:27Z</time>
      </trkpt>
      <trkpt lat="43.65758" lon="1.97122">
        <ele>143.21</ele>
        <time>2015-05-16T07:44:40Z</time>
      </trkpt>
      <trkpt lat="43.65778" lon="1.97115">
        <ele>143.58</ele>
        <time>2015-05-16T07:44:55Z</time>
      </trkpt>
      <trkpt lat="43.658" lon="1.97112">
        <ele>143.33</ele>
        <time>2015-05-16T07:45:11Z</time>
      </trkpt>
      <trkpt lat="43.65823" lon="1.97113">
        <ele>143.12</ele>
        <time>2015-05-16T07:45:29Z</time>
      </trkpt>
      <trkpt lat="43.65843" lon="1.97114">
        <ele>142.69</ele>
        <time>2015-05-16T07:45:44Z</time>
      </trkpt>
      <trkpt lat="43.65866" lon="1.97115">
        <ele>143.03</ele>
        <time>2015-05-16T07:46:01Z</time>
      </trkpt>
      <trkpt lat="43.65888" lon="1.97117">
        <ele>143.87</ele>
        <time>2015-05-16T07:46:19Z</time>
      </trkpt>
      <trkpt lat="43.65911" lon="1.97119">
        <ele>143.86</ele>
        <time>2015-05-16T07:46:38Z</time>
      </trkpt>
      <trkpt lat="43.65932" lon="1.9712">
        <ele>143.73</ele>
        <time>2015-05-16T07:46:55Z</time>
      </trkpt>
      <trkpt lat="43.65955" lon="1.97121">
        <ele>143.57</ele>
        <time>2015-05-16T07:47:13Z</time>
      </trkpt>
      <trkpt lat="43.6598" lon="1.97123">
        <ele>143.09</ele>
        <time>2015-05-16T07:47:33Z</time>
      </trkpt>
      <trkpt lat="43.65985" lon="1.97124">
        <ele>142.95</ele>
        <time>2015-05-16T07:47:37Z</time>
      </trkpt>
      <trkpt lat="43.66009" lon="1.97126">
        <ele>142.9</ele>
        <time>2015-05-16T07:47:56Z</time>
      </trkpt>
      <trkpt lat="43.66028" lon="1.97128">
        <ele>143.03</ele>
        <time>2015-05-16T07:48:11Z</time>
      </trkpt>
      <trkpt lat="43.66049" lon="1.9713">
        <ele>142.95</ele>
        <time>2015-05-16T07:48:28Z</time>
      </trkpt>
      <trkpt lat="43.66068" lon="1.9713">
        <ele>142.86</ele>
        <time>2015-05-16T07:48:44Z</time>
      </trkpt>
      <trkpt lat="43.6607" lon="1.97131">
        <ele>142.79</ele>
        <time>2015-05-16T07:48:48Z</time>
      </trkpt>
      <trkpt lat="43.66074" lon="1.97132">
        <ele>142.75</ele>
        <time>2015-05-16T07:48:51Z</time>
      </trkpt>
      <trkpt lat="43.66091" lon="1.97133">
        <ele>142.88</ele>
        <time>2015-05-16T07:49:06Z</time>
      </trkpt>
      <trkpt lat="43.6611" lon="1.97134">
        <ele>142.75</ele>
        <time>2015-05-16T07:49:21Z</time>
      </trkpt>
      <trkpt lat="43.66132" lon="1.97135">
        <ele>142.63</ele>
        <time>2015-05-16T07:49:38Z</time>
      </trkpt>
      <trkpt lat="43.66156" lon="1.97133">
        <ele>142.16</ele>
        <time>2015-05-16T07:49:56Z</time>
      </trkpt>
      <trkpt lat="43.6616" lon="1.97137">
        <ele>142.01</ele>
        <time>2015-05-16T07:50:16Z</time>
      </trkpt>
      <trkpt lat="43.66171" lon="1.97138">
        <ele>142.38</ele>
        <time>2015-05-16T07:50:31Z</time>
      </trkpt>
      <trkpt lat="43.66174" lon="1.97138">
        <ele>142.44</ele>
        <time>2015-05-16T07:50:34Z</time>
      </trkpt>
      <trkpt lat="43.66186" lon="1.9714">
        <ele>142.26</ele>
        <time>2015-05-16T07:50:48Z</time>
      </trkpt>
      <trkpt lat="43.66191" lon="1.97138">
        <ele>142.51</ele>
        <time>2015-05-16T07:51:08Z</time>
      </trkpt>
      <trkpt lat="43.66198" lon="1.97138">
        <ele>142.45</ele>
        <time>2015-05-16T07:51:14Z</time>
      </trkpt>
      <trkpt lat="43.66204" lon="1.9714">
        <ele>142.4</ele>
        <time>2015-05-16T07:51:20Z</time>
      </trkpt>
      <trkpt lat="43.66211" lon="1.97141">
        <ele>142.41</ele>
        <time>2015-05-16T07:51:28Z</time>
      </trkpt>
      <trkpt lat="43.66219" lon="1.97141">
        <ele>142.17</ele>
        <time>2015-05-16T07:51:36Z</time>
      </trkpt>
      <trkpt lat="43.66227" lon="1.97142">
        <ele>142.15</ele>
        <time>2015-05-16T07:51:44Z</time>
      </trkpt>
      <trkpt lat="43.66237" lon="1.97142">
        <ele>142</ele>
        <time>2015-05-16T07:51:53Z</time>
      </trkpt>
      <trkpt lat="43.66243" lon="1.97142">
        <ele>142.08</ele>
        <time>2015-05-16T07:51:59Z</time>
      </trkpt>
      <trkpt lat="43.66264" lon="1.97144">
        <ele>141.94</ele>
        <time>2015-05-16T07:52:17Z</time>
      </trkpt>
      <trkpt lat="43.66265" lon="1.97144">
        <ele>141.93</ele>
        <time>2015-05-16T07:52:18Z</time>
      </trkpt>
      <trkpt lat="43.66271" lon="1.97145">
        <ele>141.89</ele>
        <time>2015-05-16T07:52:22Z</time>
      </trkpt>
      <trkpt lat="43.66276" lon="1.97146">
        <ele>142.01</ele>
        <time>2015-05-16T07:52:27Z</time>
      </trkpt>
      <trkpt lat="43.66282" lon="1.97146">
        <ele>142.11</ele>
        <time>2015-05-16T07:52:31Z</time>
      </trkpt>
      <trkpt lat="43.66307" lon="1.97148">
        <ele>142.02</ele>
        <time>2015-05-16T07:52:51Z</time>
      </trkpt>
      <trkpt lat="43.66327" lon="1.97147">
        <ele>141.73</ele>
        <time>2015-05-16T07:53:08Z</time>
      </trkpt>
      <trkpt lat="43.66337" lon="1.97148">
        <ele>142.09</ele>
        <time>2015-05-16T07:53:24Z</time>
      </trkpt>
      <trkpt lat="43.66341" lon="1.97148">
        <ele>142.11</ele>
        <time>2015-05-16T07:53:34Z</time>
      </trkpt>
      <trkpt lat="43.66355" lon="1.97146">
        <ele>142.91</ele>
        <time>2015-05-16T07:53:50Z</time>
      </trkpt>
      <trkpt lat="43.66367" lon="1.97143">
        <ele>145.02</ele>
        <time>2015-05-16T07:54:09Z</time>
      </trkpt>
      <trkpt lat="43.66387" lon="1.97141">
        <ele>147.07</ele>
        <time>2015-05-16T07:54:31Z</time>
      </trkpt>
      <trkpt lat="43.66406" lon="1.9715">
        <ele>150.19</ele>
        <time>2015-05-16T07:54:52Z</time>
      </trkpt>
      <trkpt lat="43.6642" lon="1.97161">
        <ele>153.34</ele>
        <time>2015-05-16T07:55:12Z</time>
      </trkpt>
      <trkpt lat="43.66431" lon="1.97167">
        <ele>156.32</ele>
        <time>2015-05-16T07:55:34Z</time>
      </trkpt>
      <trkpt lat="43.66433" lon="1.97167">
        <ele>156.61</ele>
        <time>2015-05-16T07:55:36Z</time>
      </trkpt>
      <trkpt lat="43.66443" lon="1.97173">
        <ele>158.53</ele>
        <time>2015-05-16T07:55:58Z</time>
      </trkpt>
      <trkpt lat="43.66455" lon="1.97185">
        <ele>161.4</ele>
        <time>2015-05-16T07:56:18Z</time>
      </trkpt>
      <trkpt lat="43.66463" lon="1.97197">
        <ele>164.35</ele>
        <time>2015-05-16T07:56:37Z</time>
      </trkpt>
      <trkpt lat="43.66477" lon="1.97208">
        <ele>167.06</ele>
        <time>2015-05-16T07:56:59Z</time>
      </trkpt>
      <trkpt lat="43.6648" lon="1.97209">
        <ele>167.7</ele>
        <time>2015-05-16T07:57:04Z</time>
      </trkpt>
      <trkpt lat="43.66489" lon="1.97225">
        <ele>168.89</ele>
        <time>2015-05-16T07:57:25Z</time>
      </trkpt>
      <trkpt lat="43.66501" lon="1.97244">
        <ele>168</ele>
        <time>2015-05-16T07:57:46Z</time>
      </trkpt>
      <trkpt lat="43.66515" lon="1.97264">
        <ele>168.64</ele>
        <time>2015-05-16T07:58:09Z</time>
      </trkpt>
      <trkpt lat="43.66531" lon="1.97264">
        <ele>170.88</ele>
        <time>2015-05-16T07:58:29Z</time>
      </trkpt>
      <trkpt lat="43.66545" lon="1.97262">
        <ele>173.77</ele>
        <time>2015-05-16T07:58:50Z</time>
      </trkpt>
      <trkpt lat="43.66558" lon="1.97269">
        <ele>176.25</ele>
        <time>2015-05-16T07:59:13Z</time>
      </trkpt>
      <trkpt lat="43.66572" lon="1.97284">
        <ele>178.75</ele>
        <time>2015-05-16T07:59:36Z</time>
      </trkpt>
      <trkpt lat="43.66592" lon="1.97305">
        <ele>180.6</ele>
        <time>2015-05-16T07:59:57Z</time>
      </trkpt>
      <trkpt lat="43.66613" lon="1.97307">
        <ele>182.39</ele>
        <time>2015-05-16T08:00:14Z</time>
      </trkpt>
      <trkpt lat="43.66617" lon="1.97309">
        <ele>182.95</ele>
        <time>2015-05-16T08:00:19Z</time>
      </trkpt>
      <trkpt lat="43.66635" lon="1.97311">
        <ele>185.12</ele>
        <time>2015-05-16T08:00:35Z</time>
      </trkpt>
      <trkpt lat="43.66638" lon="1.97311">
        <ele>185.41</ele>
        <time>2015-05-16T08:00:38Z</time>
      </trkpt>
      <trkpt lat="43.66656" lon="1.97314">
        <ele>186.52</ele>
        <time>2015-05-16T08:00:55Z</time>
      </trkpt>
      <trkpt lat="43.66671" lon="1.97317">
        <ele>186.65</ele>
        <time>2015-05-16T08:01:10Z</time>
      </trkpt>
      <trkpt lat="43.66677" lon="1.97321">
        <ele>186.95</ele>
        <time>2015-05-16T08:01:16Z</time>
      </trkpt>
      <trkpt lat="43.6669" lon="1.97323">
        <ele>187.38</ele>
        <time>2015-05-16T08:01:31Z</time>
      </trkpt>
      <trkpt lat="43.66703" lon="1.97325">
        <ele>187.67</ele>
        <time>2015-05-16T08:01:50Z</time>
      </trkpt>
      <trkpt lat="43.66718" lon="1.97327">
        <ele>188.07</ele>
        <time>2015-05-16T08:02:06Z</time>
      </trkpt>
      <trkpt lat="43.66731" lon="1.97327">
        <ele>187.54</ele>
        <time>2015-05-16T08:02:19Z</time>
      </trkpt>
      <trkpt lat="43.66746" lon="1.97323">
        <ele>187.44</ele>
        <time>2015-05-16T08:02:34Z</time>
      </trkpt>
      <trkpt lat="43.6676" lon="1.97315">
        <ele>187.34</ele>
        <time>2015-05-16T08:02:50Z</time>
      </trkpt>
      <trkpt lat="43.66774" lon="1.97311">
        <ele>187.84</ele>
        <time>2015-05-16T08:03:08Z</time>
      </trkpt>
      <trkpt lat="43.66777" lon="1.97314">
        <ele>188.04</ele>
        <time>2015-05-16T08:03:31Z</time>
      </trkpt>
      <trkpt lat="43.66789" lon="1.97324">
        <ele>187.74</ele>
        <time>2015-05-16T08:03:51Z</time>
      </trkpt>
      <trkpt lat="43.66793" lon="1.97326">
        <ele>187.74</ele>
        <time>2015-05-16T08:03:55Z</time>
      </trkpt>
      <trkpt lat="43.66812" lon="1.97333">
        <ele>187.78</ele>
        <time>2015-05-16T08:04:13Z</time>
      </trkpt>
      <trkpt lat="43.66829" lon="1.97337">
        <ele>187.41</ele>
        <time>2015-05-16T08:04:28Z</time>
      </trkpt>
      <trkpt lat="43.66845" lon="1.97344">
        <ele>187.37</ele>
        <time>2015-05-16T08:04:42Z</time>
      </trkpt>
      <trkpt lat="43.66848" lon="1.97345">
        <ele>187.44</ele>
        <time>2015-05-16T08:04:45Z</time>
      </trkpt>
      <trkpt lat="43.66865" lon="1.97351">
        <ele>187.1</ele>
        <time>2015-05-16T08:05:02Z</time>
      </trkpt>
      <trkpt lat="43.66882" lon="1.97355">
        <ele>186.5</ele>
        <time>2015-05-16T08:05:19Z</time>
      </trkpt>
      <trkpt lat="43.66901" lon="1.97361">
        <ele>186.25</ele>
        <time>2015-05-16T08:05:36Z</time>
      </trkpt>
      <trkpt lat="43.66922" lon="1.97368">
        <ele>185.63</ele>
        <time>2015-05-16T08:05:55Z</time>
      </trkpt>
      <trkpt lat="43.6694" lon="1.97378">
        <ele>184.98</ele>
        <time>2015-05-16T08:06:13Z</time>
      </trkpt>
      <trkpt lat="43.66955" lon="1.97387">
        <ele>184.66</ele>
        <time>2015-05-16T08:06:28Z</time>
      </trkpt>
      <trkpt lat="43.66973" lon="1.97397">
        <ele>183.57</ele>
        <time>2015-05-16T08:06:45Z</time>
      </trkpt>
      <trkpt lat="43.66992" lon="1.9741">
        <ele>182.08</ele>
        <time>2015-05-16T08:07:04Z</time>
      </trkpt>
      <trkpt lat="43.6701" lon="1.9742">
        <ele>180.76</ele>
        <time>2015-05-16T08:07:21Z</time>
      </trkpt>
      <trkpt lat="43.67029" lon="1.97432">
        <ele>179.28</ele>
        <time>2015-05-16T08:07:42Z</time>
      </trkpt>
      <trkpt lat="43.67032" lon="1.97434">
        <ele>179.27</ele>
        <time>2015-05-16T08:07:46Z</time>
      </trkpt>
      <trkpt lat="43.67037" lon="1.97437">
        <ele>179.21</ele>
        <time>2015-05-16T08:07:50Z</time>
      </trkpt>
      <trkpt lat="43.67055" lon="1.97444">
        <ele>178.72</ele>
        <time>2015-05-16T08:08:04Z</time>
      </trkpt>
      <trkpt lat="43.67072" lon="1.97449">
        <ele>178.33</ele>
        <time>2015-05-16T08:08:18Z</time>
      </trkpt>
      <trkpt lat="43.67088" lon="1.97456">
        <ele>179.3</ele>
        <time>2015-05-16T08:08:36Z</time>
      </trkpt>
      <trkpt lat="43.67108" lon="1.97464">
        <ele>181.69</ele>
        <time>2015-05-16T08:08:56Z</time>
      </trkpt>
      <trkpt lat="43.67125" lon="1.97466">
        <ele>182.92</ele>
        <time>2015-05-16T08:09:07Z</time>
      </trkpt>
      <trkpt lat="43.67146" lon="1.97475">
        <ele>184.49</ele>
        <time>2015-05-16T08:09:28Z</time>
      </trkpt>
      <trkpt lat="43.67165" lon="1.97484">
        <ele>185.78</ele>
        <time>2015-05-16T08:09:47Z</time>
      </trkpt>
      <trkpt lat="43.67189" lon="1.97491">
        <ele>186.77</ele>
        <time>2015-05-16T08:10:05Z</time>
      </trkpt>
      <trkpt lat="43.67214" lon="1.97502">
        <ele>187.03</ele>
        <time>2015-05-16T08:10:25Z</time>
      </trkpt>
      <trkpt lat="43.67232" lon="1.97513">
        <ele>186.79</ele>
        <time>2015-05-16T08:10:42Z</time>
      </trkpt>
      <trkpt lat="43.67248" lon="1.97523">
        <ele>186.94</ele>
        <time>2015-05-16T08:10:58Z</time>
      </trkpt>
      <trkpt lat="43.67251" lon="1.97524">
        <ele>186.94</ele>
        <time>2015-05-16T08:11:01Z</time>
      </trkpt>
      <trkpt lat="43.67266" lon="1.97535">
        <ele>186.77</ele>
        <time>2015-05-16T08:11:16Z</time>
      </trkpt>
      <trkpt lat="43.67289" lon="1.97535">
        <ele>187.22</ele>
        <time>2015-05-16T08:11:33Z</time>
      </trkpt>
      <trkpt lat="43.67305" lon="1.97532">
        <ele>187.82</ele>
        <time>2015-05-16T08:11:48Z</time>
      </trkpt>
      <trkpt lat="43.67324" lon="1.97526">
        <ele>189.17</ele>
        <time>2015-05-16T08:12:06Z</time>
      </trkpt>
      <trkpt lat="43.67336" lon="1.97538">
        <ele>190.45</ele>
        <time>2015-05-16T08:12:25Z</time>
      </trkpt>
      <trkpt lat="43.67342" lon="1.9755">
        <ele>191.35</ele>
        <time>2015-05-16T08:12:45Z</time>
      </trkpt>
      <trkpt lat="43.67352" lon="1.97574">
        <ele>191.68</ele>
        <time>2015-05-16T08:13:05Z</time>
      </trkpt>
      <trkpt lat="43.6736" lon="1.97608">
        <ele>192.74</ele>
        <time>2015-05-16T08:13:28Z</time>
      </trkpt>
      <trkpt lat="43.67364" lon="1.97642">
        <ele>193.56</ele>
        <time>2015-05-16T08:13:50Z</time>
      </trkpt>
      <trkpt lat="43.67364" lon="1.97649">
        <ele>193.67</ele>
        <time>2015-05-16T08:13:55Z</time>
      </trkpt>
      <trkpt lat="43.67364" lon="1.97691">
        <ele>193.35</ele>
        <time>2015-05-16T08:14:15Z</time>
      </trkpt>
      <trkpt lat="43.67369" lon="1.97713">
        <ele>194.01</ele>
        <time>2015-05-16T08:14:35Z</time>
      </trkpt>
      <trkpt lat="43.67382" lon="1.97735">
        <ele>195.49</ele>
        <time>2015-05-16T08:14:54Z</time>
      </trkpt>
      <trkpt lat="43.67406" lon="1.97747">
        <ele>198.13</ele>
        <time>2015-05-16T08:15:15Z</time>
      </trkpt>
      <trkpt lat="43.67422" lon="1.97759">
        <ele>199.6</ele>
        <time>2015-05-16T08:15:35Z</time>
      </trkpt>
      <trkpt lat="43.67426" lon="1.9776">
        <ele>199.77</ele>
        <time>2015-05-16T08:15:38Z</time>
      </trkpt>
      <trkpt lat="43.67443" lon="1.97763">
        <ele>200.56</ele>
        <time>2015-05-16T08:15:54Z</time>
      </trkpt>
      <trkpt lat="43.67455" lon="1.97764">
        <ele>200.66</ele>
        <time>2015-05-16T08:16:03Z</time>
      </trkpt>
      <trkpt lat="43.67471" lon="1.97767">
        <ele>200.88</ele>
        <time>2015-05-16T08:16:17Z</time>
      </trkpt>
      <trkpt lat="43.67475" lon="1.97767">
        <ele>200.88</ele>
        <time>2015-05-16T08:16:21Z</time>
      </trkpt>
      <trkpt lat="43.67493" lon="1.97771">
        <ele>201.02</ele>
        <time>2015-05-16T08:16:38Z</time>
      </trkpt>
      <trkpt lat="43.67511" lon="1.97772">
        <ele>201.66</ele>
        <time>2015-05-16T08:16:54Z</time>
      </trkpt>
      <trkpt lat="43.67531" lon="1.97776">
        <ele>202.75</ele>
        <time>2015-05-16T08:17:13Z</time>
      </trkpt>
      <trkpt lat="43.67549" lon="1.97778">
        <ele>203.23</ele>
        <time>2015-05-16T08:17:29Z</time>
      </trkpt>
      <trkpt lat="43.67569" lon="1.97781">
        <ele>203.77</ele>
        <time>2015-05-16T08:17:48Z</time>
      </trkpt>
      <trkpt lat="43.67588" lon="1.97785">
        <ele>204.96</ele>
        <time>2015-05-16T08:18:07Z</time>
      </trkpt>
      <trkpt lat="43.67605" lon="1.97789">
        <ele>205.06</ele>
        <time>2015-05-16T08:18:23Z</time>
      </trkpt>
      <trkpt lat="43.67622" lon="1.97793">
        <ele>204.61</ele>
        <time>2015-05-16T08:18:40Z</time>
      </trkpt>
      <trkpt lat="43.67635" lon="1.97799">
        <ele>205.32</ele>
        <time>2015-05-16T08:19:01Z</time>
      </trkpt>
      <trkpt lat="43.67631" lon="1.97818">
        <ele>205.73</ele>
        <time>2015-05-16T08:19:21Z</time>
      </trkpt>
      <trkpt lat="43.67621" lon="1.97843">
        <ele>205.88</ele>
        <time>2015-05-16T08:19:41Z</time>
      </trkpt>
      <trkpt lat="43.67614" lon="1.97871">
        <ele>206.06</ele>
        <time>2015-05-16T08:20:01Z</time>
      </trkpt>
      <trkpt lat="43.67612" lon="1.97883">
        <ele>206.06</ele>
        <time>2015-05-16T08:20:23Z</time>
      </trkpt>
      <trkpt lat="43.6761" lon="1.9788">
        <ele>205.67</ele>
        <time>2015-05-16T08:20:47Z</time>
      </trkpt>
      <trkpt lat="43.67608" lon="1.97894">
        <ele>205.65</ele>
        <time>2015-05-16T08:21:07Z</time>
      </trkpt>
      <trkpt lat="43.67602" lon="1.97919">
        <ele>206.17</ele>
        <time>2015-05-16T08:21:30Z</time>
      </trkpt>
      <trkpt lat="43.676" lon="1.97924">
        <ele>206.28</ele>
        <time>2015-05-16T08:21:33Z</time>
      </trkpt>
      <trkpt lat="43.67598" lon="1.97959">
        <ele>207.1</ele>
        <time>2015-05-16T08:21:51Z</time>
      </trkpt>
      <trkpt lat="43.67596" lon="1.97973">
        <ele>206.6</ele>
        <time>2015-05-16T08:22:05Z</time>
      </trkpt>
      <trkpt lat="43.67595" lon="1.97983">
        <ele>206.82</ele>
        <time>2015-05-16T08:22:35Z</time>
      </trkpt>
      <trkpt lat="43.67594" lon="1.97989">
        <ele>206.69</ele>
        <time>2015-05-16T08:22:41Z</time>
      </trkpt>
      <trkpt lat="43.67593" lon="1.97996">
        <ele>206.64</ele>
        <time>2015-05-16T08:22:46Z</time>
      </trkpt>
      <trkpt lat="43.67589" lon="1.98025">
        <ele>206.62</ele>
        <time>2015-05-16T08:23:03Z</time>
      </trkpt>
      <trkpt lat="43.67589" lon="1.9803">
        <ele>206.56</ele>
        <time>2015-05-16T08:23:06Z</time>
      </trkpt>
      <trkpt lat="43.67584" lon="1.98056">
        <ele>206.81</ele>
        <time>2015-05-16T08:23:21Z</time>
      </trkpt>
      <trkpt lat="43.67584" lon="1.9806">
        <ele>206.78</ele>
        <time>2015-05-16T08:23:24Z</time>
      </trkpt>
      <trkpt lat="43.67582" lon="1.98079">
        <ele>206.85</ele>
        <time>2015-05-16T08:23:39Z</time>
      </trkpt>
      <trkpt lat="43.67574" lon="1.9811">
        <ele>207.05</ele>
        <time>2015-05-16T08:24:02Z</time>
      </trkpt>
      <trkpt lat="43.67567" lon="1.98137">
        <ele>207.8</ele>
        <time>2015-05-16T08:24:15Z</time>
      </trkpt>
      <trkpt lat="43.67562" lon="1.98154">
        <ele>207.7</ele>
        <time>2015-05-16T08:24:43Z</time>
      </trkpt>
      <trkpt lat="43.6756" lon="1.98161">
        <ele>207.93</ele>
        <time>2015-05-16T08:24:54Z</time>
      </trkpt>
      <trkpt lat="43.67551" lon="1.98189">
        <ele>208.41</ele>
        <time>2015-05-16T08:25:14Z</time>
      </trkpt>
      <trkpt lat="43.67556" lon="1.98208">
        <ele>208.91</ele>
        <time>2015-05-16T08:25:29Z</time>
      </trkpt>
      <trkpt lat="43.67575" lon="1.98203">
        <ele>209.99</ele>
        <time>2015-05-16T08:25:48Z</time>
      </trkpt>
      <trkpt lat="43.67595" lon="1.98196">
        <ele>210.37</ele>
        <time>2015-05-16T08:26:06Z</time>
      </trkpt>
      <trkpt lat="43.67616" lon="1.98189">
        <ele>210.84</ele>
        <time>2015-05-16T08:26:25Z</time>
      </trkpt>
      <trkpt lat="43.67641" lon="1.98182">
        <ele>211.86</ele>
        <time>2015-05-16T08:26:46Z</time>
      </trkpt>
      <trkpt lat="43.67658" lon="1.98176">
        <ele>212.36</ele>
        <time>2015-05-16T08:27:00Z</time>
      </trkpt>
      <trkpt lat="43.67676" lon="1.98168">
        <ele>213.42</ele>
        <time>2015-05-16T08:27:15Z</time>
      </trkpt>
      <trkpt lat="43.67698" lon="1.98161">
        <ele>214.5</ele>
        <time>2015-05-16T08:27:35Z</time>
      </trkpt>
      <trkpt lat="43.67715" lon="1.98158">
        <ele>215.74</ele>
        <time>2015-05-16T08:27:57Z</time>
      </trkpt>
      <trkpt lat="43.67744" lon="1.98168">
        <ele>218.73</ele>
        <time>2015-05-16T08:28:18Z</time>
      </trkpt>
      <trkpt lat="43.67766" lon="1.9818">
        <ele>220.82</ele>
        <time>2015-05-16T08:28:37Z</time>
      </trkpt>
      <trkpt lat="43.67772" lon="1.98182">
        <ele>220.96</ele>
        <time>2015-05-16T08:28:41Z</time>
      </trkpt>
      <trkpt lat="43.67786" lon="1.98191">
        <ele>222.4</ele>
        <time>2015-05-16T08:28:56Z</time>
      </trkpt>
      <trkpt lat="43.67797" lon="1.98199">
        <ele>223.5</ele>
        <time>2015-05-16T08:29:11Z</time>
      </trkpt>
      <trkpt lat="43.67805" lon="1.98205">
        <ele>223.8</ele>
        <time>2015-05-16T08:29:20Z</time>
      </trkpt>
      <trkpt lat="43.67818" lon="1.98219">
        <ele>224.77</ele>
        <time>2015-05-16T08:29:35Z</time>
      </trkpt>
      <trkpt lat="43.67829" lon="1.98221">
        <ele>225.42</ele>
        <time>2015-05-16T08:29:49Z</time>
      </trkpt>
      <trkpt lat="43.67837" lon="1.98217">
        <ele>225.68</ele>
        <time>2015-05-16T08:30:10Z</time>
      </trkpt>
      <trkpt lat="43.67839" lon="1.98216">
        <ele>225.63</ele>
        <time>2015-05-16T08:30:36Z</time>
      </trkpt>
      <trkpt lat="43.67839" lon="1.98216">
        <ele>225.91</ele>
        <time>2015-05-16T08:31:16Z</time>
      </trkpt>
      <trkpt lat="43.6784" lon="1.98216">
        <ele>225.61</ele>
        <time>2015-05-16T08:31:53Z</time>
      </trkpt>
      <trkpt lat="43.6784" lon="1.98215">
        <ele>225.37</ele>
        <time>2015-05-16T08:32:16Z</time>
      </trkpt>
      <trkpt lat="43.67844" lon="1.98212">
        <ele>225.24</ele>
        <time>2015-05-16T08:32:38Z</time>
      </trkpt>
      <trkpt lat="43.67848" lon="1.98208">
        <ele>225.33</ele>
        <time>2015-05-16T08:32:44Z</time>
      </trkpt>
      <trkpt lat="43.67858" lon="1.98197">
        <ele>224.92</ele>
        <time>2015-05-16T08:32:58Z</time>
      </trkpt>
      <trkpt lat="43.6787" lon="1.98181">
        <ele>224.89</ele>
        <time>2015-05-16T08:33:19Z</time>
      </trkpt>
      <trkpt lat="43.67878" lon="1.98171">
        <ele>224.34</ele>
        <time>2015-05-16T08:33:30Z</time>
      </trkpt>
      <trkpt lat="43.67891" lon="1.98161">
        <ele>224.8</ele>
        <time>2015-05-16T08:33:44Z</time>
      </trkpt>
      <trkpt lat="43.67905" lon="1.98148">
        <ele>223.95</ele>
        <time>2015-05-16T08:34:00Z</time>
      </trkpt>
      <trkpt lat="43.6792" lon="1.98135">
        <ele>223.98</ele>
        <time>2015-05-16T08:34:17Z</time>
      </trkpt>
      <trkpt lat="43.67934" lon="1.9812">
        <ele>223.41</ele>
        <time>2015-05-16T08:34:33Z</time>
      </trkpt>
      <trkpt lat="43.67946" lon="1.98107">
        <ele>223.07</ele>
        <time>2015-05-16T08:34:47Z</time>
      </trkpt>
      <trkpt lat="43.67959" lon="1.98093">
        <ele>223.12</ele>
        <time>2015-05-16T08:35:02Z</time>
      </trkpt>
      <trkpt lat="43.67965" lon="1.98086">
        <ele>223.38</ele>
        <time>2015-05-16T08:35:09Z</time>
      </trkpt>
      <trkpt lat="43.67981" lon="1.98068">
        <ele>223.19</ele>
        <time>2015-05-16T08:35:27Z</time>
      </trkpt>
      <trkpt lat="43.67997" lon="1.9805">
        <ele>223.33</ele>
        <time>2015-05-16T08:35:45Z</time>
      </trkpt>
      <trkpt lat="43.68013" lon="1.98034">
        <ele>223.7</ele>
        <time>2015-05-16T08:36:02Z</time>
      </trkpt>
      <trkpt lat="43.68025" lon="1.98023">
        <ele>223.25</ele>
        <time>2015-05-16T08:36:15Z</time>
      </trkpt>
      <trkpt lat="43.68037" lon="1.9801">
        <ele>222.88</ele>
        <time>2015-05-16T08:36:30Z</time>
      </trkpt>
      <trkpt lat="43.68048" lon="1.98">
        <ele>222.46</ele>
        <time>2015-05-16T08:36:43Z</time>
      </trkpt>
      <trkpt lat="43.68062" lon="1.97986">
        <ele>222.99</ele>
        <time>2015-05-16T08:36:56Z</time>
      </trkpt>
      <trkpt lat="43.68079" lon="1.9797">
        <ele>223.66</ele>
        <time>2015-05-16T08:37:12Z</time>
      </trkpt>
      <trkpt lat="43.68092" lon="1.97957">
        <ele>223.58</ele>
        <time>2015-05-16T08:37:25Z</time>
      </trkpt>
      <trkpt lat="43.68103" lon="1.97942">
        <ele>223.65</ele>
        <time>2015-05-16T08:37:39Z</time>
      </trkpt>
      <trkpt lat="43.68119" lon="1.97927">
        <ele>223.71</ele>
        <time>2015-05-16T08:37:55Z</time>
      </trkpt>
      <trkpt lat="43.68132" lon="1.97911">
        <ele>223.7</ele>
        <time>2015-05-16T08:38:11Z</time>
      </trkpt>
      <trkpt lat="43.68145" lon="1.97896">
        <ele>224.16</ele>
        <time>2015-05-16T08:38:26Z</time>
      </trkpt>
      <trkpt lat="43.68156" lon="1.97881">
        <ele>223.86</ele>
        <time>2015-05-16T08:38:40Z</time>
      </trkpt>
      <trkpt lat="43.68173" lon="1.97865">
        <ele>222.35</ele>
        <time>2015-05-16T08:39:00Z</time>
      </trkpt>
      <trkpt lat="43.68188" lon="1.97844">
        <ele>220.84</ele>
        <time>2015-05-16T08:39:18Z</time>
      </trkpt>
      <trkpt lat="43.68198" lon="1.97833">
        <ele>219.47</ele>
        <time>2015-05-16T08:39:29Z</time>
      </trkpt>
      <trkpt lat="43.68215" lon="1.97821">
        <ele>217.61</ele>
        <time>2015-05-16T08:39:44Z</time>
      </trkpt>
      <trkpt lat="43.68238" lon="1.97799">
        <ele>216.63</ele>
        <time>2015-05-16T08:40:03Z</time>
      </trkpt>
      <trkpt lat="43.68252" lon="1.97777">
        <ele>215.87</ele>
        <time>2015-05-16T08:40:20Z</time>
      </trkpt>
      <trkpt lat="43.6826" lon="1.97753">
        <ele>215.58</ele>
        <time>2015-05-16T08:40:37Z</time>
      </trkpt>
      <trkpt lat="43.68275" lon="1.97734">
        <ele>215.29</ele>
        <time>2015-05-16T08:40:57Z</time>
      </trkpt>
      <trkpt lat="43.68288" lon="1.97714">
        <ele>216.91</ele>
        <time>2015-05-16T08:41:18Z</time>
      </trkpt>
      <trkpt lat="43.68304" lon="1.97695">
        <ele>218.58</ele>
        <time>2015-05-16T08:41:39Z</time>
      </trkpt>
      <trkpt lat="43.68317" lon="1.97674">
        <ele>220.2</ele>
        <time>2015-05-16T08:41:57Z</time>
      </trkpt>
      <trkpt lat="43.6833" lon="1.97658">
        <ele>220.33</ele>
        <time>2015-05-16T08:42:13Z</time>
      </trkpt>
      <trkpt lat="43.68342" lon="1.97636">
        <ele>220.53</ele>
        <time>2015-05-16T08:42:29Z</time>
      </trkpt>
      <trkpt lat="43.68352" lon="1.97619">
        <ele>220.48</ele>
        <time>2015-05-16T08:42:45Z</time>
      </trkpt>
      <trkpt lat="43.68361" lon="1.97599">
        <ele>220.41</ele>
        <time>2015-05-16T08:43:00Z</time>
      </trkpt>
      <trkpt lat="43.68363" lon="1.97596">
        <ele>220.25</ele>
        <time>2015-05-16T08:43:03Z</time>
      </trkpt>
      <trkpt lat="43.68368" lon="1.97561">
        <ele>220.73</ele>
        <time>2015-05-16T08:43:20Z</time>
      </trkpt>
      <trkpt lat="43.6837" lon="1.97538">
        <ele>220.82</ele>
        <time>2015-05-16T08:43:34Z</time>
      </trkpt>
      <trkpt lat="43.68372" lon="1.97516">
        <ele>220.02</ele>
        <time>2015-05-16T08:43:47Z</time>
      </trkpt>
      <trkpt lat="43.68386" lon="1.97493">
        <ele>219.67</ele>
        <time>2015-05-16T08:44:08Z</time>
      </trkpt>
      <trkpt lat="43.684" lon="1.97474">
        <ele>219.85</ele>
        <time>2015-05-16T08:44:28Z</time>
      </trkpt>
      <trkpt lat="43.68419" lon="1.97451">
        <ele>220.29</ele>
        <time>2015-05-16T08:44:51Z</time>
      </trkpt>
      <trkpt lat="43.68431" lon="1.97429">
        <ele>221.28</ele>
        <time>2015-05-16T08:45:11Z</time>
      </trkpt>
      <trkpt lat="43.68439" lon="1.9739">
        <ele>220.95</ele>
        <time>2015-05-16T08:45:34Z</time>
      </trkpt>
      <trkpt lat="43.68449" lon="1.9736">
        <ele>219.36</ele>
        <time>2015-05-16T08:45:52Z</time>
      </trkpt>
      <trkpt lat="43.68462" lon="1.97336">
        <ele>218.23</ele>
        <time>2015-05-16T08:46:10Z</time>
      </trkpt>
      <trkpt lat="43.68464" lon="1.97332">
        <ele>218.17</ele>
        <time>2015-05-16T08:46:13Z</time>
      </trkpt>
      <trkpt lat="43.68476" lon="1.97313">
        <ele>218.06</ele>
        <time>2015-05-16T08:46:32Z</time>
      </trkpt>
      <trkpt lat="43.68486" lon="1.97281">
        <ele>218.18</ele>
        <time>2015-05-16T08:46:54Z</time>
      </trkpt>
      <trkpt lat="43.68493" lon="1.97269">
        <ele>218.4</ele>
        <time>2015-05-16T08:47:07Z</time>
      </trkpt>
      <trkpt lat="43.68501" lon="1.97243">
        <ele>220.08</ele>
        <time>2015-05-16T08:47:24Z</time>
      </trkpt>
      <trkpt lat="43.68507" lon="1.97229">
        <ele>220.77</ele>
        <time>2015-05-16T08:47:39Z</time>
      </trkpt>
      <trkpt lat="43.6851" lon="1.97227">
        <ele>221.31</ele>
        <time>2015-05-16T08:48:01Z</time>
      </trkpt>
      <trkpt lat="43.68514" lon="1.97222">
        <ele>221.15</ele>
        <time>2015-05-16T08:48:21Z</time>
      </trkpt>
      <trkpt lat="43.68514" lon="1.97221">
        <ele>221.13</ele>
        <time>2015-05-16T08:48:22Z</time>
      </trkpt>
      <trkpt lat="43.68516" lon="1.97215">
        <ele>220.99</ele>
        <time>2015-05-16T08:48:27Z</time>
      </trkpt>
      <trkpt lat="43.68518" lon="1.97211">
        <ele>221.02</ele>
        <time>2015-05-16T08:48:30Z</time>
      </trkpt>
      <trkpt lat="43.68522" lon="1.97205">
        <ele>221.24</ele>
        <time>2015-05-16T08:48:35Z</time>
      </trkpt>
      <trkpt lat="43.68533" lon="1.97186">
        <ele>222</ele>
        <time>2015-05-16T08:48:49Z</time>
      </trkpt>
      <trkpt lat="43.68544" lon="1.97157">
        <ele>222.99</ele>
        <time>2015-05-16T08:49:06Z</time>
      </trkpt>
      <trkpt lat="43.68553" lon="1.97133">
        <ele>223.48</ele>
        <time>2015-05-16T08:49:22Z</time>
      </trkpt>
      <trkpt lat="43.68555" lon="1.9713">
        <ele>223.55</ele>
        <time>2015-05-16T08:49:24Z</time>
      </trkpt>
      <trkpt lat="43.68556" lon="1.97127">
        <ele>223.61</ele>
        <time>2015-05-16T08:49:26Z</time>
      </trkpt>
      <trkpt lat="43.68564" lon="1.97104">
        <ele>224.13</ele>
        <time>2015-05-16T08:49:42Z</time>
      </trkpt>
      <trkpt lat="43.68572" lon="1.97085">
        <ele>224</ele>
        <time>2015-05-16T08:49:58Z</time>
      </trkpt>
      <trkpt lat="43.68582" lon="1.9706">
        <ele>225.12</ele>
        <time>2015-05-16T08:50:13Z</time>
      </trkpt>
      <trkpt lat="43.68591" lon="1.97037">
        <ele>225.33</ele>
        <time>2015-05-16T08:50:28Z</time>
      </trkpt>
      <trkpt lat="43.68595" lon="1.97029">
        <ele>225.32</ele>
        <time>2015-05-16T08:50:34Z</time>
      </trkpt>
      <trkpt lat="43.68598" lon="1.97023">
        <ele>225.51</ele>
        <time>2015-05-16T08:50:38Z</time>
      </trkpt>
      <trkpt lat="43.68613" lon="1.96998">
        <ele>225.93</ele>
        <time>2015-05-16T08:50:57Z</time>
      </trkpt>
      <trkpt lat="43.68614" lon="1.96996">
        <ele>225.96</ele>
        <time>2015-05-16T08:50:59Z</time>
      </trkpt>
      <trkpt lat="43.68617" lon="1.96991">
        <ele>225.98</ele>
        <time>2015-05-16T08:51:03Z</time>
      </trkpt>
      <trkpt lat="43.68628" lon="1.96965">
        <ele>226.58</ele>
        <time>2015-05-16T08:51:19Z</time>
      </trkpt>
      <trkpt lat="43.68632" lon="1.96957">
        <ele>226.58</ele>
        <time>2015-05-16T08:51:24Z</time>
      </trkpt>
      <trkpt lat="43.68639" lon="1.96944">
        <ele>226.65</ele>
        <time>2015-05-16T08:51:33Z</time>
      </trkpt>
      <trkpt lat="43.68651" lon="1.9692">
        <ele>226.24</ele>
        <time>2015-05-16T08:51:51Z</time>
      </trkpt>
      <trkpt lat="43.68659" lon="1.96901">
        <ele>225.97</ele>
        <time>2015-05-16T08:52:04Z</time>
      </trkpt>
      <trkpt lat="43.68662" lon="1.96893">
        <ele>226.14</ele>
        <time>2015-05-16T08:52:09Z</time>
      </trkpt>
      <trkpt lat="43.68675" lon="1.96869">
        <ele>226.03</ele>
        <time>2015-05-16T08:52:27Z</time>
      </trkpt>
      <trkpt lat="43.68679" lon="1.9686">
        <ele>225.85</ele>
        <time>2015-05-16T08:52:33Z</time>
      </trkpt>
      <trkpt lat="43.68692" lon="1.96836">
        <ele>226.01</ele>
        <time>2015-05-16T08:52:51Z</time>
      </trkpt>
      <trkpt lat="43.68696" lon="1.96826">
        <ele>226.25</ele>
        <time>2015-05-16T08:52:58Z</time>
      </trkpt>
      <trkpt lat="43.68706" lon="1.96804">
        <ele>226.38</ele>
        <time>2015-05-16T08:53:15Z</time>
      </trkpt>
      <trkpt lat="43.68708" lon="1.96795">
        <ele>225.99</ele>
        <time>2015-05-16T08:53:36Z</time>
      </trkpt>
      <trkpt lat="43.68709" lon="1.96792">
        <ele>226.13</ele>
        <time>2015-05-16T08:54:04Z</time>
      </trkpt>
      <trkpt lat="43.68711" lon="1.9679">
        <ele>226.13</ele>
        <time>2015-05-16T08:54:39Z</time>
      </trkpt>
      <trkpt lat="43.68711" lon="1.96785">
        <ele>226.32</ele>
        <time>2015-05-16T08:55:05Z</time>
      </trkpt>
      <trkpt lat="43.68719" lon="1.96794">
        <ele>227.36</ele>
        <time>2015-05-16T08:55:21Z</time>
      </trkpt>
      <trkpt lat="43.68723" lon="1.968">
        <ele>227.69</ele>
        <time>2015-05-16T08:55:29Z</time>
      </trkpt>
      <trkpt lat="43.68735" lon="1.96814">
        <ele>229.5</ele>
        <time>2015-05-16T08:55:48Z</time>
      </trkpt>
      <trkpt lat="43.68744" lon="1.96826">
        <ele>231.4</ele>
        <time>2015-05-16T08:56:04Z</time>
      </trkpt>
      <trkpt lat="43.68755" lon="1.96842">
        <ele>233.71</ele>
        <time>2015-05-16T08:56:21Z</time>
      </trkpt>
      <trkpt lat="43.68758" lon="1.96847">
        <ele>234.35</ele>
        <time>2015-05-16T08:56:26Z</time>
      </trkpt>
      <trkpt lat="43.68763" lon="1.96852">
        <ele>235.12</ele>
        <time>2015-05-16T08:56:32Z</time>
      </trkpt>
      <trkpt lat="43.68767" lon="1.96861">
        <ele>236.3</ele>
        <time>2015-05-16T08:56:40Z</time>
      </trkpt>
      <trkpt lat="43.68774" lon="1.96868">
        <ele>237.37</ele>
        <time>2015-05-16T08:56:48Z</time>
      </trkpt>
      <trkpt lat="43.68783" lon="1.96883">
        <ele>238.96</ele>
        <time>2015-05-16T08:57:03Z</time>
      </trkpt>
      <trkpt lat="43.6879" lon="1.96896">
        <ele>240.67</ele>
        <time>2015-05-16T08:57:17Z</time>
      </trkpt>
      <trkpt lat="43.68797" lon="1.96914">
        <ele>243.22</ele>
        <time>2015-05-16T08:57:37Z</time>
      </trkpt>
      <trkpt lat="43.68805" lon="1.96932">
        <ele>245.9</ele>
        <time>2015-05-16T08:57:54Z</time>
      </trkpt>
      <trkpt lat="43.68814" lon="1.96949">
        <ele>248.52</ele>
        <time>2015-05-16T08:58:12Z</time>
      </trkpt>
      <trkpt lat="43.6882" lon="1.96962">
        <ele>250.5</ele>
        <time>2015-05-16T08:58:26Z</time>
      </trkpt>
      <trkpt lat="43.68824" lon="1.96972">
        <ele>252.55</ele>
        <time>2015-05-16T08:58:42Z</time>
      </trkpt>
      <trkpt lat="43.68828" lon="1.96982">
        <ele>253.61</ele>
        <time>2015-05-16T08:59:09Z</time>
      </trkpt>
      <trkpt lat="43.68834" lon="1.97">
        <ele>256.62</ele>
        <time>2015-05-16T08:59:29Z</time>
      </trkpt>
      <trkpt lat="43.68839" lon="1.97019">
        <ele>259.2</ele>
        <time>2015-05-16T08:59:49Z</time>
      </trkpt>
      <trkpt lat="43.68841" lon="1.97032">
        <ele>262.21</ele>
        <time>2015-05-16T09:00:09Z</time>
      </trkpt>
      <trkpt lat="43.68842" lon="1.97051">
        <ele>265.26</ele>
        <time>2015-05-16T09:00:29Z</time>
      </trkpt>
      <trkpt lat="43.6884" lon="1.97073">
        <ele>267.92</ele>
        <time>2015-05-16T09:00:48Z</time>
      </trkpt>
      <trkpt lat="43.68842" lon="1.97081">
        <ele>268.82</ele>
        <time>2015-05-16T09:00:56Z</time>
      </trkpt>
      <trkpt lat="43.68847" lon="1.97098">
        <ele>272.09</ele>
        <time>2015-05-16T09:01:14Z</time>
      </trkpt>
      <trkpt lat="43.68855" lon="1.97114">
        <ele>275.12</ele>
        <time>2015-05-16T09:01:34Z</time>
      </trkpt>
      <trkpt lat="43.68863" lon="1.97138">
        <ele>278.11</ele>
        <time>2015-05-16T09:01:56Z</time>
      </trkpt>
      <trkpt lat="43.68878" lon="1.97152">
        <ele>280.85</ele>
        <time>2015-05-16T09:02:16Z</time>
      </trkpt>
      <trkpt lat="43.68879" lon="1.97154">
        <ele>281.28</ele>
        <time>2015-05-16T09:02:18Z</time>
      </trkpt>
      <trkpt lat="43.68881" lon="1.97156">
        <ele>281.82</ele>
        <time>2015-05-16T09:02:54Z</time>
      </trkpt>
      <trkpt lat="43.68876" lon="1.97151">
        <ele>281.25</ele>
        <time>2015-05-16T09:03:17Z</time>
      </trkpt>
      <trkpt lat="43.68877" lon="1.9715">
        <ele>280.69</ele>
        <time>2015-05-16T09:03:41Z</time>
      </trkpt>
      <trkpt lat="43.68876" lon="1.9715">
        <ele>280.67</ele>
        <time>2015-05-16T09:04:14Z</time>
      </trkpt>
      <trkpt lat="43.68882" lon="1.97156">
        <ele>281.26</ele>
        <time>2015-05-16T09:04:36Z</time>
      </trkpt>
      <trkpt lat="43.68894" lon="1.97164">
        <ele>283.47</ele>
        <time>2015-05-16T09:04:56Z</time>
      </trkpt>
      <trkpt lat="43.68902" lon="1.97176">
        <ele>285.75</ele>
        <time>2015-05-16T09:05:19Z</time>
      </trkpt>
      <trkpt lat="43.68915" lon="1.97187">
        <ele>288.36</ele>
        <time>2015-05-16T09:05:39Z</time>
      </trkpt>
      <trkpt lat="43.6893" lon="1.97198">
        <ele>290.67</ele>
        <time>2015-05-16T09:06:01Z</time>
      </trkpt>
      <trkpt lat="43.68943" lon="1.97208">
        <ele>292.3</ele>
        <time>2015-05-16T09:06:21Z</time>
      </trkpt>
      <trkpt lat="43.68959" lon="1.97223">
        <ele>294.76</ele>
        <time>2015-05-16T09:06:44Z</time>
      </trkpt>
      <trkpt lat="43.68967" lon="1.97232">
        <ele>296.43</ele>
        <time>2015-05-16T09:07:05Z</time>
      </trkpt>
      <trkpt lat="43.68968" lon="1.97238">
        <ele>297.25</ele>
        <time>2015-05-16T09:07:32Z</time>
      </trkpt>
      <trkpt lat="43.68972" lon="1.97247">
        <ele>296.52</ele>
        <time>2015-05-16T09:07:56Z</time>
      </trkpt>
      <trkpt lat="43.68974" lon="1.97247">
        <ele>296.38</ele>
        <time>2015-05-16T09:08:44Z</time>
      </trkpt>
      <trkpt lat="43.68972" lon="1.97251">
        <ele>296.74</ele>
        <time>2015-05-16T09:09:38Z</time>
      </trkpt>
      <trkpt lat="43.68969" lon="1.97254">
        <ele>297.42</ele>
        <time>2015-05-16T09:10:02Z</time>
      </trkpt>
      <trkpt lat="43.68972" lon="1.97255">
        <ele>298</ele>
        <time>2015-05-16T09:10:28Z</time>
      </trkpt>
      <trkpt lat="43.68973" lon="1.97254">
        <ele>297.9</ele>
        <time>2015-05-16T09:10:51Z</time>
      </trkpt>
      <trkpt lat="43.68974" lon="1.97252">
        <ele>298.08</ele>
        <time>2015-05-16T09:11:18Z</time>
      </trkpt>
      <trkpt lat="43.68974" lon="1.97246">
        <ele>298.19</ele>
        <time>2015-05-16T09:11:46Z</time>
      </trkpt>
      <trkpt lat="43.68985" lon="1.97235">
        <ele>298.03</ele>
        <time>2015-05-16T09:12:09Z</time>
      </trkpt>
      <trkpt lat="43.68995" lon="1.97216">
        <ele>297.02</ele>
        <time>2015-05-16T09:12:30Z</time>
      </trkpt>
      <trkpt lat="43.69013" lon="1.97202">
        <ele>296.49</ele>
        <time>2015-05-16T09:12:50Z</time>
      </trkpt>
      <trkpt lat="43.69031" lon="1.97189">
        <ele>295.44</ele>
        <time>2015-05-16T09:13:07Z</time>
      </trkpt>
      <trkpt lat="43.69045" lon="1.97183">
        <ele>294.09</ele>
        <time>2015-05-16T09:13:25Z</time>
      </trkpt>
      <trkpt lat="43.69061" lon="1.9719">
        <ele>293.27</ele>
        <time>2015-05-16T09:13:49Z</time>
      </trkpt>
      <trkpt lat="43.6909" lon="1.97203">
        <ele>293.7</ele>
        <time>2015-05-16T09:14:11Z</time>
      </trkpt>
      <trkpt lat="43.69101" lon="1.97213">
        <ele>294.78</ele>
        <time>2015-05-16T09:14:26Z</time>
      </trkpt>
      <trkpt lat="43.69105" lon="1.97211">
        <ele>294.47</ele>
        <time>2015-05-16T09:14:36Z</time>
      </trkpt>
      <trkpt lat="43.69121" lon="1.97203">
        <ele>293.15</ele>
        <time>2015-05-16T09:14:59Z</time>
      </trkpt>
      <trkpt lat="43.6914" lon="1.97193">
        <ele>292.04</ele>
        <time>2015-05-16T09:15:19Z</time>
      </trkpt>
      <trkpt lat="43.69169" lon="1.97176">
        <ele>291.14</ele>
        <time>2015-05-16T09:15:42Z</time>
      </trkpt>
      <trkpt lat="43.69194" lon="1.97161">
        <ele>291.67</ele>
        <time>2015-05-16T09:16:04Z</time>
      </trkpt>
      <trkpt lat="43.69209" lon="1.97133">
        <ele>289.96</ele>
        <time>2015-05-16T09:16:22Z</time>
      </trkpt>
      <trkpt lat="43.69216" lon="1.97109">
        <ele>288.01</ele>
        <time>2015-05-16T09:16:43Z</time>
      </trkpt>
      <trkpt lat="43.69223" lon="1.97089">
        <ele>285.11</ele>
        <time>2015-05-16T09:17:01Z</time>
      </trkpt>
      <trkpt lat="43.69227" lon="1.97071">
        <ele>282.02</ele>
        <time>2015-05-16T09:17:16Z</time>
      </trkpt>
      <trkpt lat="43.69233" lon="1.97061">
        <ele>279.65</ele>
        <time>2015-05-16T09:17:33Z</time>
      </trkpt>
      <trkpt lat="43.69239" lon="1.97068">
        <ele>280.5</ele>
        <time>2015-05-16T09:17:50Z</time>
      </trkpt>
      <trkpt lat="43.69253" lon="1.97081">
        <ele>282.85</ele>
        <time>2015-05-16T09:18:13Z</time>
      </trkpt>
      <trkpt lat="43.69267" lon="1.97083">
        <ele>284.87</ele>
        <time>2015-05-16T09:18:33Z</time>
      </trkpt>
      <trkpt lat="43.69281" lon="1.9709">
        <ele>286.32</ele>
        <time>2015-05-16T09:18:51Z</time>
      </trkpt>
      <trkpt lat="43.69292" lon="1.97099">
        <ele>286.51</ele>
        <time>2015-05-16T09:19:08Z</time>
      </trkpt>
      <trkpt lat="43.69296" lon="1.97103">
        <ele>286.46</ele>
        <time>2015-05-16T09:19:13Z</time>
      </trkpt>
      <trkpt lat="43.69313" lon="1.97106">
        <ele>286.79</ele>
        <time>2015-05-16T09:19:28Z</time>
      </trkpt>
      <trkpt lat="43.69319" lon="1.97116">
        <ele>286.94</ele>
        <time>2015-05-16T09:19:54Z</time>
      </trkpt>
      <trkpt lat="43.6932" lon="1.9712">
        <ele>287.52</ele>
        <time>2015-05-16T09:20:20Z</time>
      </trkpt>
      <trkpt lat="43.69328" lon="1.97125">
        <ele>287.61</ele>
        <time>2015-05-16T09:20:46Z</time>
      </trkpt>
      <trkpt lat="43.69327" lon="1.97124">
        <ele>287.95</ele>
        <time>2015-05-16T09:21:12Z</time>
      </trkpt>
      <trkpt lat="43.69328" lon="1.9713">
        <ele>287.58</ele>
        <time>2015-05-16T09:21:39Z</time>
      </trkpt>
      <trkpt lat="43.69338" lon="1.97132">
        <ele>288.02</ele>
        <time>2015-05-16T09:21:58Z</time>
      </trkpt>
      <trkpt lat="43.69351" lon="1.9714">
        <ele>288.69</ele>
        <time>2015-05-16T09:22:20Z</time>
      </trkpt>
      <trkpt lat="43.69368" lon="1.97149">
        <ele>289.93</ele>
        <time>2015-05-16T09:22:39Z</time>
      </trkpt>
      <trkpt lat="43.6937" lon="1.9715">
        <ele>289.87</ele>
        <time>2015-05-16T09:22:43Z</time>
      </trkpt>
      <trkpt lat="43.69391" lon="1.97164">
        <ele>290.64</ele>
        <time>2015-05-16T09:23:06Z</time>
      </trkpt>
      <trkpt lat="43.69404" lon="1.97181">
        <ele>291.83</ele>
        <time>2015-05-16T09:23:25Z</time>
      </trkpt>
      <trkpt lat="43.69407" lon="1.97186">
        <ele>291.86</ele>
        <time>2015-05-16T09:23:30Z</time>
      </trkpt>
      <trkpt lat="43.69418" lon="1.9719">
        <ele>290.38</ele>
        <time>2015-05-16T09:23:51Z</time>
      </trkpt>
      <trkpt lat="43.69435" lon="1.97185">
        <ele>287.35</ele>
        <time>2015-05-16T09:24:10Z</time>
      </trkpt>
      <trkpt lat="43.69462" lon="1.97176">
        <ele>284.33</ele>
        <time>2015-05-16T09:24:30Z</time>
      </trkpt>
      <trkpt lat="43.69476" lon="1.97164">
        <ele>281.18</ele>
        <time>2015-05-16T09:24:43Z</time>
      </trkpt>
      <trkpt lat="43.69481" lon="1.97152">
        <ele>279.04</ele>
        <time>2015-05-16T09:24:55Z</time>
      </trkpt>
      <trkpt lat="43.69481" lon="1.97113">
        <ele>276.38</ele>
        <time>2015-05-16T09:25:18Z</time>
      </trkpt>
      <trkpt lat="43.69481" lon="1.97084">
        <ele>273.33</ele>
        <time>2015-05-16T09:25:36Z</time>
      </trkpt>
      <trkpt lat="43.69482" lon="1.97049">
        <ele>270.27</ele>
        <time>2015-05-16T09:25:57Z</time>
      </trkpt>
      <trkpt lat="43.69484" lon="1.97043">
        <ele>269.68</ele>
        <time>2015-05-16T09:26:01Z</time>
      </trkpt>
      <trkpt lat="43.69501" lon="1.97029">
        <ele>266.28</ele>
        <time>2015-05-16T09:26:19Z</time>
      </trkpt>
      <trkpt lat="43.69524" lon="1.97027">
        <ele>263.59</ele>
        <time>2015-05-16T09:26:39Z</time>
      </trkpt>
      <trkpt lat="43.69526" lon="1.97026">
        <ele>263.34</ele>
        <time>2015-05-16T09:26:41Z</time>
      </trkpt>
      <trkpt lat="43.69528" lon="1.97024">
        <ele>263</ele>
        <time>2015-05-16T09:26:43Z</time>
      </trkpt>
      <trkpt lat="43.6953" lon="1.97015">
        <ele>261.38</ele>
        <time>2015-05-16T09:27:00Z</time>
      </trkpt>
      <trkpt lat="43.6953" lon="1.97014">
        <ele>261.2</ele>
        <time>2015-05-16T09:27:06Z</time>
      </trkpt>
      <trkpt lat="43.69534" lon="1.96996">
        <ele>259.71</ele>
        <time>2015-05-16T09:27:22Z</time>
      </trkpt>
      <trkpt lat="43.69538" lon="1.96963">
        <ele>256.84</ele>
        <time>2015-05-16T09:27:43Z</time>
      </trkpt>
      <trkpt lat="43.69541" lon="1.96933">
        <ele>255.77</ele>
        <time>2015-05-16T09:28:02Z</time>
      </trkpt>
      <trkpt lat="43.69544" lon="1.96906">
        <ele>252.98</ele>
        <time>2015-05-16T09:28:19Z</time>
      </trkpt>
      <trkpt lat="43.69546" lon="1.96882">
        <ele>251.21</ele>
        <time>2015-05-16T09:28:36Z</time>
      </trkpt>
      <trkpt lat="43.6955" lon="1.96851">
        <ele>248.18</ele>
        <time>2015-05-16T09:28:56Z</time>
      </trkpt>
      <trkpt lat="43.69554" lon="1.96819">
        <ele>246.19</ele>
        <time>2015-05-16T09:29:16Z</time>
      </trkpt>
      <trkpt lat="43.69562" lon="1.96806">
        <ele>244.02</ele>
        <time>2015-05-16T09:29:31Z</time>
      </trkpt>
      <trkpt lat="43.69574" lon="1.96813">
        <ele>243.31</ele>
        <time>2015-05-16T09:29:46Z</time>
      </trkpt>
      <trkpt lat="43.69585" lon="1.96821">
        <ele>243.4</ele>
        <time>2015-05-16T09:30:06Z</time>
      </trkpt>
      <trkpt lat="43.69602" lon="1.96827">
        <ele>241.15</ele>
        <time>2015-05-16T09:30:28Z</time>
      </trkpt>
      <trkpt lat="43.6963" lon="1.9684">
        <ele>238.98</ele>
        <time>2015-05-16T09:30:49Z</time>
      </trkpt>
      <trkpt lat="43.69648" lon="1.96856">
        <ele>237.98</ele>
        <time>2015-05-16T09:31:08Z</time>
      </trkpt>
      <trkpt lat="43.69662" lon="1.96865">
        <ele>235.32</ele>
        <time>2015-05-16T09:31:27Z</time>
      </trkpt>
      <trkpt lat="43.69683" lon="1.96881">
        <ele>233.18</ele>
        <time>2015-05-16T09:31:49Z</time>
      </trkpt>
      <trkpt lat="43.69688" lon="1.96894">
        <ele>231.56</ele>
        <time>2015-05-16T09:32:09Z</time>
      </trkpt>
      <trkpt lat="43.69702" lon="1.96918">
        <ele>231.86</ele>
        <time>2015-05-16T09:32:29Z</time>
      </trkpt>
      <trkpt lat="43.69712" lon="1.96936">
        <ele>230.57</ele>
        <time>2015-05-16T09:32:50Z</time>
      </trkpt>
      <trkpt lat="43.69723" lon="1.96948">
        <ele>231.13</ele>
        <time>2015-05-16T09:33:13Z</time>
      </trkpt>
      <trkpt lat="43.69735" lon="1.96956">
        <ele>233.05</ele>
        <time>2015-05-16T09:33:36Z</time>
      </trkpt>
      <trkpt lat="43.69749" lon="1.96969">
        <ele>234.56</ele>
        <time>2015-05-16T09:33:53Z</time>
      </trkpt>
      <trkpt lat="43.69762" lon="1.96977">
        <ele>236.43</ele>
        <time>2015-05-16T09:34:14Z</time>
      </trkpt>
      <trkpt lat="43.69791" lon="1.96986">
        <ele>238.27</ele>
        <time>2015-05-16T09:34:34Z</time>
      </trkpt>
      <trkpt lat="43.69805" lon="1.9699">
        <ele>239.35</ele>
        <time>2015-05-16T09:34:48Z</time>
      </trkpt>
      <trkpt lat="43.69814" lon="1.96987">
        <ele>239.78</ele>
        <time>2015-05-16T09:34:57Z</time>
      </trkpt>
      <trkpt lat="43.69828" lon="1.97009">
        <ele>240.53</ele>
        <time>2015-05-16T09:35:18Z</time>
      </trkpt>
      <trkpt lat="43.69841" lon="1.97018">
        <ele>241.99</ele>
        <time>2015-05-16T09:35:38Z</time>
      </trkpt>
      <trkpt lat="43.69853" lon="1.97025">
        <ele>243.38</ele>
        <time>2015-05-16T09:36:00Z</time>
      </trkpt>
      <trkpt lat="43.69864" lon="1.97036">
        <ele>244.36</ele>
        <time>2015-05-16T09:36:21Z</time>
      </trkpt>
      <trkpt lat="43.6987" lon="1.97049">
        <ele>245.7</ele>
        <time>2015-05-16T09:36:42Z</time>
      </trkpt>
      <trkpt lat="43.69885" lon="1.97064">
        <ele>247.98</ele>
        <time>2015-05-16T09:37:03Z</time>
      </trkpt>
      <trkpt lat="43.69893" lon="1.97068">
        <ele>248.54</ele>
        <time>2015-05-16T09:37:10Z</time>
      </trkpt>
      <trkpt lat="43.6991" lon="1.97079">
        <ele>250.46</ele>
        <time>2015-05-16T09:37:31Z</time>
      </trkpt>
      <trkpt lat="43.69929" lon="1.97084">
        <ele>251.48</ele>
        <time>2015-05-16T09:37:50Z</time>
      </trkpt>
      <trkpt lat="43.69944" lon="1.97094">
        <ele>253.56</ele>
        <time>2015-05-16T09:38:11Z</time>
      </trkpt>
      <trkpt lat="43.69956" lon="1.97102">
        <ele>255.49</ele>
        <time>2015-05-16T09:38:33Z</time>
      </trkpt>
      <trkpt lat="43.69972" lon="1.97109">
        <ele>257.29</ele>
        <time>2015-05-16T09:38:56Z</time>
      </trkpt>
      <trkpt lat="43.69983" lon="1.97113">
        <ele>259.02</ele>
        <time>2015-05-16T09:39:12Z</time>
      </trkpt>
      <trkpt lat="43.69998" lon="1.97125">
        <ele>260.89</ele>
        <time>2015-05-16T09:39:37Z</time>
      </trkpt>
      <trkpt lat="43.7001" lon="1.97136">
        <ele>263.01</ele>
        <time>2015-05-16T09:40:01Z</time>
      </trkpt>
      <trkpt lat="43.70021" lon="1.97155">
        <ele>264.18</ele>
        <time>2015-05-16T09:40:24Z</time>
      </trkpt>
      <trkpt lat="43.7004" lon="1.97168">
        <ele>265.26</ele>
        <time>2015-05-16T09:40:48Z</time>
      </trkpt>
      <trkpt lat="43.70046" lon="1.97171">
        <ele>267.18</ele>
        <time>2015-05-16T09:40:59Z</time>
      </trkpt>
      <trkpt lat="43.70058" lon="1.97176">
        <ele>268.58</ele>
        <time>2015-05-16T09:41:09Z</time>
      </trkpt>
      <trkpt lat="43.70062" lon="1.97183">
        <ele>269.27</ele>
        <time>2015-05-16T09:41:19Z</time>
      </trkpt>
      <trkpt lat="43.70072" lon="1.97194">
        <ele>271.65</ele>
        <time>2015-05-16T09:41:46Z</time>
      </trkpt>
      <trkpt lat="43.70076" lon="1.97196">
        <ele>272.2</ele>
        <time>2015-05-16T09:41:54Z</time>
      </trkpt>
      <trkpt lat="43.7008" lon="1.97202">
        <ele>273.51</ele>
        <time>2015-05-16T09:42:08Z</time>
      </trkpt>
      <trkpt lat="43.70092" lon="1.97204">
        <ele>275.6</ele>
        <time>2015-05-16T09:42:34Z</time>
      </trkpt>
      <trkpt lat="43.70095" lon="1.97205">
        <ele>275.63</ele>
        <time>2015-05-16T09:42:55Z</time>
      </trkpt>
      <trkpt lat="43.70098" lon="1.97206">
        <ele>275.88</ele>
        <time>2015-05-16T09:43:18Z</time>
      </trkpt>
      <trkpt lat="43.70107" lon="1.972">
        <ele>277.48</ele>
        <time>2015-05-16T09:43:45Z</time>
      </trkpt>
      <trkpt lat="43.70109" lon="1.97196">
        <ele>278.52</ele>
        <time>2015-05-16T09:44:10Z</time>
      </trkpt>
      <trkpt lat="43.70113" lon="1.97177">
        <ele>281.58</ele>
        <time>2015-05-16T09:44:30Z</time>
      </trkpt>
      <trkpt lat="43.70119" lon="1.97178">
        <ele>284.07</ele>
        <time>2015-05-16T09:44:52Z</time>
      </trkpt>
      <trkpt lat="43.70127" lon="1.97184">
        <ele>287.03</ele>
        <time>2015-05-16T09:45:16Z</time>
      </trkpt>
      <trkpt lat="43.70139" lon="1.97197">
        <ele>289.49</ele>
        <time>2015-05-16T09:45:40Z</time>
      </trkpt>
      <trkpt lat="43.70155" lon="1.97199">
        <ele>291.33</ele>
        <time>2015-05-16T09:45:58Z</time>
      </trkpt>
      <trkpt lat="43.70174" lon="1.97205">
        <ele>292.65</ele>
        <time>2015-05-16T09:46:17Z</time>
      </trkpt>
      <trkpt lat="43.70188" lon="1.97206">
        <ele>293.38</ele>
        <time>2015-05-16T09:46:38Z</time>
      </trkpt>
      <trkpt lat="43.702" lon="1.9721">
        <ele>294.07</ele>
        <time>2015-05-16T09:46:56Z</time>
      </trkpt>
      <trkpt lat="43.70209" lon="1.97218">
        <ele>294.63</ele>
        <time>2015-05-16T09:47:21Z</time>
      </trkpt>
      <trkpt lat="43.70219" lon="1.97232">
        <ele>294.93</ele>
        <time>2015-05-16T09:47:41Z</time>
      </trkpt>
      <trkpt lat="43.70224" lon="1.9724">
        <ele>295.31</ele>
        <time>2015-05-16T09:47:51Z</time>
      </trkpt>
      <trkpt lat="43.70235" lon="1.97254">
        <ele>296.44</ele>
        <time>2015-05-16T09:48:14Z</time>
      </trkpt>
      <trkpt lat="43.70249" lon="1.9726">
        <ele>298.61</ele>
        <time>2015-05-16T09:48:33Z</time>
      </trkpt>
      <trkpt lat="43.70263" lon="1.97264">
        <ele>299.88</ele>
        <time>2015-05-16T09:48:49Z</time>
      </trkpt>
      <trkpt lat="43.70269" lon="1.9727">
        <ele>301.74</ele>
        <time>2015-05-16T09:49:03Z</time>
      </trkpt>
      <trkpt lat="43.70272" lon="1.97269">
        <ele>302.01</ele>
        <time>2015-05-16T09:49:05Z</time>
      </trkpt>
      <trkpt lat="43.70286" lon="1.97278">
        <ele>304.72</ele>
        <time>2015-05-16T09:49:24Z</time>
      </trkpt>
      <trkpt lat="43.70291" lon="1.97303">
        <ele>307.6</ele>
        <time>2015-05-16T09:49:48Z</time>
      </trkpt>
      <trkpt lat="43.70301" lon="1.97314">
        <ele>307.34</ele>
        <time>2015-05-16T09:50:11Z</time>
      </trkpt>
      <trkpt lat="43.70306" lon="1.97318">
        <ele>307.51</ele>
        <time>2015-05-16T09:50:38Z</time>
      </trkpt>
      <trkpt lat="43.70308" lon="1.97317">
        <ele>307.27</ele>
        <time>2015-05-16T09:51:08Z</time>
      </trkpt>
      <trkpt lat="43.70313" lon="1.97326">
        <ele>307.5</ele>
        <time>2015-05-16T09:51:28Z</time>
      </trkpt>
      <trkpt lat="43.70316" lon="1.97335">
        <ele>307.41</ele>
        <time>2015-05-16T09:51:44Z</time>
      </trkpt>
      <trkpt lat="43.70321" lon="1.97359">
        <ele>307.51</ele>
        <time>2015-05-16T09:52:07Z</time>
      </trkpt>
      <trkpt lat="43.70326" lon="1.97379">
        <ele>309.66</ele>
        <time>2015-05-16T09:52:26Z</time>
      </trkpt>
      <trkpt lat="43.70331" lon="1.97396">
        <ele>311.02</ele>
        <time>2015-05-16T09:52:41Z</time>
      </trkpt>
      <trkpt lat="43.70337" lon="1.97411">
        <ele>312.57</ele>
        <time>2015-05-16T09:52:55Z</time>
      </trkpt>
      <trkpt lat="43.70345" lon="1.97426">
        <ele>313.66</ele>
        <time>2015-05-16T09:53:08Z</time>
      </trkpt>
      <trkpt lat="43.70349" lon="1.97446">
        <ele>315.24</ele>
        <time>2015-05-16T09:53:23Z</time>
      </trkpt>
      <trkpt lat="43.70351" lon="1.97465">
        <ele>316.58</ele>
        <time>2015-05-16T09:53:39Z</time>
      </trkpt>
      <trkpt lat="43.70356" lon="1.97493">
        <ele>318.81</ele>
        <time>2015-05-16T09:54:00Z</time>
      </trkpt>
      <trkpt lat="43.70358" lon="1.9752">
        <ele>320.3</ele>
        <time>2015-05-16T09:54:21Z</time>
      </trkpt>
      <trkpt lat="43.7036" lon="1.97547">
        <ele>321.18</ele>
        <time>2015-05-16T09:54:42Z</time>
      </trkpt>
      <trkpt lat="43.70358" lon="1.97575">
        <ele>322.45</ele>
        <time>2015-05-16T09:55:02Z</time>
      </trkpt>
      <trkpt lat="43.70362" lon="1.976">
        <ele>323.29</ele>
        <time>2015-05-16T09:55:23Z</time>
      </trkpt>
      <trkpt lat="43.70363" lon="1.97622">
        <ele>322.42</ele>
        <time>2015-05-16T09:55:40Z</time>
      </trkpt>
      <trkpt lat="43.70363" lon="1.97646">
        <ele>321.51</ele>
        <time>2015-05-16T09:55:53Z</time>
      </trkpt>
      <trkpt lat="43.70362" lon="1.97663">
        <ele>321.25</ele>
        <time>2015-05-16T09:56:03Z</time>
      </trkpt>
      <trkpt lat="43.70358" lon="1.9769">
        <ele>321.09</ele>
        <time>2015-05-16T09:56:21Z</time>
      </trkpt>
      <trkpt lat="43.70352" lon="1.97725">
        <ele>322</ele>
        <time>2015-05-16T09:56:43Z</time>
      </trkpt>
      <trkpt lat="43.70347" lon="1.97755">
        <ele>322.59</ele>
        <time>2015-05-16T09:57:02Z</time>
      </trkpt>
      <trkpt lat="43.70346" lon="1.9777">
        <ele>323.16</ele>
        <time>2015-05-16T09:57:12Z</time>
      </trkpt>
      <trkpt lat="43.70345" lon="1.97773">
        <ele>323.17</ele>
        <time>2015-05-16T09:57:14Z</time>
      </trkpt>
      <trkpt lat="43.70343" lon="1.97782">
        <ele>323.49</ele>
        <time>2015-05-16T09:57:21Z</time>
      </trkpt>
      <trkpt lat="43.70339" lon="1.978">
        <ele>324.49</ele>
        <time>2015-05-16T09:57:36Z</time>
      </trkpt>
      <trkpt lat="43.70334" lon="1.97829">
        <ele>326.28</ele>
        <time>2015-05-16T09:57:59Z</time>
      </trkpt>
      <trkpt lat="43.70328" lon="1.97855">
        <ele>328.77</ele>
        <time>2015-05-16T09:58:20Z</time>
      </trkpt>
      <trkpt lat="43.70323" lon="1.97882">
        <ele>331.46</ele>
        <time>2015-05-16T09:58:44Z</time>
      </trkpt>
      <trkpt lat="43.70318" lon="1.97903">
        <ele>333.6</ele>
        <time>2015-05-16T09:59:05Z</time>
      </trkpt>
      <trkpt lat="43.70311" lon="1.97926">
        <ele>335.91</ele>
        <time>2015-05-16T09:59:27Z</time>
      </trkpt>
      <trkpt lat="43.70302" lon="1.97942">
        <ele>337.15</ele>
        <time>2015-05-16T09:59:47Z</time>
      </trkpt>
      <trkpt lat="43.70289" lon="1.97969">
        <ele>339.07</ele>
        <time>2015-05-16T10:00:10Z</time>
      </trkpt>
      <trkpt lat="43.70275" lon="1.97987">
        <ele>341.15</ele>
        <time>2015-05-16T10:00:34Z</time>
      </trkpt>
      <trkpt lat="43.70255" lon="1.98017">
        <ele>342.29</ele>
        <time>2015-05-16T10:00:55Z</time>
      </trkpt>
      <trkpt lat="43.70247" lon="1.98028">
        <ele>342.95</ele>
        <time>2015-05-16T10:01:05Z</time>
      </trkpt>
      <trkpt lat="43.70236" lon="1.98037">
        <ele>343.66</ele>
        <time>2015-05-16T10:01:20Z</time>
      </trkpt>
      <trkpt lat="43.70217" lon="1.98052">
        <ele>344.57</ele>
        <time>2015-05-16T10:01:38Z</time>
      </trkpt>
      <trkpt lat="43.70205" lon="1.98067">
        <ele>345.22</ele>
        <time>2015-05-16T10:01:55Z</time>
      </trkpt>
      <trkpt lat="43.70193" lon="1.98081">
        <ele>345.8</ele>
        <time>2015-05-16T10:02:10Z</time>
      </trkpt>
      <trkpt lat="43.70175" lon="1.98106">
        <ele>345.78</ele>
        <time>2015-05-16T10:02:28Z</time>
      </trkpt>
      <trkpt lat="43.7016" lon="1.98125">
        <ele>345.72</ele>
        <time>2015-05-16T10:02:46Z</time>
      </trkpt>
      <trkpt lat="43.70147" lon="1.98144">
        <ele>345.59</ele>
        <time>2015-05-16T10:03:03Z</time>
      </trkpt>
      <trkpt lat="43.70135" lon="1.98157">
        <ele>344.96</ele>
        <time>2015-05-16T10:03:18Z</time>
      </trkpt>
      <trkpt lat="43.70122" lon="1.9818">
        <ele>344.91</ele>
        <time>2015-05-16T10:03:39Z</time>
      </trkpt>
      <trkpt lat="43.70113" lon="1.982">
        <ele>345.17</ele>
        <time>2015-05-16T10:03:55Z</time>
      </trkpt>
      <trkpt lat="43.70106" lon="1.98216">
        <ele>345.59</ele>
        <time>2015-05-16T10:04:20Z</time>
      </trkpt>
      <trkpt lat="43.70097" lon="1.98237">
        <ele>345.78</ele>
        <time>2015-05-16T10:04:37Z</time>
      </trkpt>
      <trkpt lat="43.70087" lon="1.98258">
        <ele>345.86</ele>
        <time>2015-05-16T10:04:54Z</time>
      </trkpt>
      <trkpt lat="43.70077" lon="1.98283">
        <ele>346.71</ele>
        <time>2015-05-16T10:05:10Z</time>
      </trkpt>
      <trkpt lat="43.70069" lon="1.98303">
        <ele>346.31</ele>
        <time>2015-05-16T10:05:26Z</time>
      </trkpt>
      <trkpt lat="43.7006" lon="1.98328">
        <ele>345.18</ele>
        <time>2015-05-16T10:05:45Z</time>
      </trkpt>
      <trkpt lat="43.70058" lon="1.98352">
        <ele>343.33</ele>
        <time>2015-05-16T10:06:03Z</time>
      </trkpt>
      <trkpt lat="43.70067" lon="1.98365">
        <ele>342.13</ele>
        <time>2015-05-16T10:06:20Z</time>
      </trkpt>
      <trkpt lat="43.70079" lon="1.98381">
        <ele>341.14</ele>
        <time>2015-05-16T10:06:42Z</time>
      </trkpt>
      <trkpt lat="43.70091" lon="1.984">
        <ele>339.45</ele>
        <time>2015-05-16T10:07:03Z</time>
      </trkpt>
      <trkpt lat="43.70104" lon="1.98414">
        <ele>338.04</ele>
        <time>2015-05-16T10:07:20Z</time>
      </trkpt>
      <trkpt lat="43.70119" lon="1.98434">
        <ele>335.5</ele>
        <time>2015-05-16T10:07:39Z</time>
      </trkpt>
      <trkpt lat="43.70123" lon="1.98442">
        <ele>334.71</ele>
        <time>2015-05-16T10:07:46Z</time>
      </trkpt>
      <trkpt lat="43.7013" lon="1.98466">
        <ele>332.03</ele>
        <time>2015-05-16T10:08:05Z</time>
      </trkpt>
      <trkpt lat="43.7013" lon="1.9849">
        <ele>330.47</ele>
        <time>2015-05-16T10:08:21Z</time>
      </trkpt>
      <trkpt lat="43.70129" lon="1.98517">
        <ele>329.65</ele>
        <time>2015-05-16T10:08:41Z</time>
      </trkpt>
      <trkpt lat="43.70116" lon="1.98519">
        <ele>326.58</ele>
        <time>2015-05-16T10:09:00Z</time>
      </trkpt>
      <trkpt lat="43.70109" lon="1.98516">
        <ele>324.47</ele>
        <time>2015-05-16T10:09:14Z</time>
      </trkpt>
      <trkpt lat="43.70098" lon="1.98499">
        <ele>321.21</ele>
        <time>2015-05-16T10:09:35Z</time>
      </trkpt>
      <trkpt lat="43.70087" lon="1.98485">
        <ele>318.1</ele>
        <time>2015-05-16T10:09:49Z</time>
      </trkpt>
      <trkpt lat="43.70074" lon="1.98478">
        <ele>315</ele>
        <time>2015-05-16T10:10:07Z</time>
      </trkpt>
      <trkpt lat="43.70055" lon="1.98474">
        <ele>311.91</ele>
        <time>2015-05-16T10:10:28Z</time>
      </trkpt>
      <trkpt lat="43.70043" lon="1.98474">
        <ele>308.89</ele>
        <time>2015-05-16T10:10:42Z</time>
      </trkpt>
      <trkpt lat="43.70031" lon="1.98478">
        <ele>305.32</ele>
        <time>2015-05-16T10:10:59Z</time>
      </trkpt>
      <trkpt lat="43.70028" lon="1.98476">
        <ele>304.48</ele>
        <time>2015-05-16T10:11:04Z</time>
      </trkpt>
      <trkpt lat="43.70013" lon="1.98479">
        <ele>301.5</ele>
        <time>2015-05-16T10:11:27Z</time>
      </trkpt>
      <trkpt lat="43.70016" lon="1.98498">
        <ele>298.37</ele>
        <time>2015-05-16T10:11:51Z</time>
      </trkpt>
      <trkpt lat="43.70015" lon="1.98522">
        <ele>295.76</ele>
        <time>2015-05-16T10:12:10Z</time>
      </trkpt>
      <trkpt lat="43.70006" lon="1.98539">
        <ele>293.65</ele>
        <time>2015-05-16T10:12:27Z</time>
      </trkpt>
      <trkpt lat="43.69999" lon="1.98553">
        <ele>290.64</ele>
        <time>2015-05-16T10:12:45Z</time>
      </trkpt>
      <trkpt lat="43.6999" lon="1.98577">
        <ele>287.6</ele>
        <time>2015-05-16T10:13:05Z</time>
      </trkpt>
      <trkpt lat="43.69982" lon="1.98592">
        <ele>286.24</ele>
        <time>2015-05-16T10:13:26Z</time>
      </trkpt>
      <trkpt lat="43.69964" lon="1.98603">
        <ele>284.86</ele>
        <time>2015-05-16T10:13:49Z</time>
      </trkpt>
      <trkpt lat="43.69945" lon="1.98611">
        <ele>284.03</ele>
        <time>2015-05-16T10:14:08Z</time>
      </trkpt>
      <trkpt lat="43.69935" lon="1.98631">
        <ele>283.06</ele>
        <time>2015-05-16T10:14:25Z</time>
      </trkpt>
      <trkpt lat="43.69926" lon="1.98653">
        <ele>281.32</ele>
        <time>2015-05-16T10:14:44Z</time>
      </trkpt>
      <trkpt lat="43.6992" lon="1.98668">
        <ele>278.21</ele>
        <time>2015-05-16T10:14:59Z</time>
      </trkpt>
      <trkpt lat="43.69905" lon="1.98682">
        <ele>275.26</ele>
        <time>2015-05-16T10:15:17Z</time>
      </trkpt>
      <trkpt lat="43.6989" lon="1.98697">
        <ele>274.34</ele>
        <time>2015-05-16T10:15:33Z</time>
      </trkpt>
      <trkpt lat="43.69872" lon="1.98724">
        <ele>274.18</ele>
        <time>2015-05-16T10:15:58Z</time>
      </trkpt>
      <trkpt lat="43.69854" lon="1.98744">
        <ele>274.15</ele>
        <time>2015-05-16T10:16:18Z</time>
      </trkpt>
      <trkpt lat="43.69839" lon="1.98765">
        <ele>272.98</ele>
        <time>2015-05-16T10:16:37Z</time>
      </trkpt>
      <trkpt lat="43.69826" lon="1.98786">
        <ele>272.8</ele>
        <time>2015-05-16T10:16:56Z</time>
      </trkpt>
      <trkpt lat="43.69814" lon="1.98806">
        <ele>272.44</ele>
        <time>2015-05-16T10:17:16Z</time>
      </trkpt>
      <trkpt lat="43.69798" lon="1.98838">
        <ele>271.59</ele>
        <time>2015-05-16T10:17:36Z</time>
      </trkpt>
      <trkpt lat="43.69785" lon="1.98856">
        <ele>271.32</ele>
        <time>2015-05-16T10:17:57Z</time>
      </trkpt>
      <trkpt lat="43.69768" lon="1.98878">
        <ele>272.96</ele>
        <time>2015-05-16T10:18:19Z</time>
      </trkpt>
      <trkpt lat="43.69749" lon="1.98889">
        <ele>272.35</ele>
        <time>2015-05-16T10:18:39Z</time>
      </trkpt>
      <trkpt lat="43.69734" lon="1.98909">
        <ele>270.42</ele>
        <time>2015-05-16T10:19:00Z</time>
      </trkpt>
      <trkpt lat="43.69712" lon="1.98914">
        <ele>268.18</ele>
        <time>2015-05-16T10:19:20Z</time>
      </trkpt>
      <trkpt lat="43.6969" lon="1.98926">
        <ele>265.71</ele>
        <time>2015-05-16T10:19:40Z</time>
      </trkpt>
      <trkpt lat="43.69678" lon="1.98944">
        <ele>264.58</ele>
        <time>2015-05-16T10:19:57Z</time>
      </trkpt>
      <trkpt lat="43.69668" lon="1.9897">
        <ele>265.1</ele>
        <time>2015-05-16T10:20:17Z</time>
      </trkpt>
      <trkpt lat="43.6966" lon="1.98996">
        <ele>263.46</ele>
        <time>2015-05-16T10:20:37Z</time>
      </trkpt>
      <trkpt lat="43.69658" lon="1.99027">
        <ele>260.66</ele>
        <time>2015-05-16T10:20:57Z</time>
      </trkpt>
      <trkpt lat="43.69648" lon="1.99053">
        <ele>259.33</ele>
        <time>2015-05-16T10:21:17Z</time>
      </trkpt>
      <trkpt lat="43.69634" lon="1.99074">
        <ele>257.86</ele>
        <time>2015-05-16T10:21:36Z</time>
      </trkpt>
      <trkpt lat="43.69624" lon="1.99096">
        <ele>254.84</ele>
        <time>2015-05-16T10:21:55Z</time>
      </trkpt>
      <trkpt lat="43.69611" lon="1.9912">
        <ele>252.32</ele>
        <time>2015-05-16T10:22:15Z</time>
      </trkpt>
      <trkpt lat="43.69599" lon="1.99138">
        <ele>250.17</ele>
        <time>2015-05-16T10:22:31Z</time>
      </trkpt>
      <trkpt lat="43.69585" lon="1.99162">
        <ele>247.97</ele>
        <time>2015-05-16T10:22:51Z</time>
      </trkpt>
      <trkpt lat="43.6957" lon="1.99186">
        <ele>246.14</ele>
        <time>2015-05-16T10:23:12Z</time>
      </trkpt>
      <trkpt lat="43.69561" lon="1.99206">
        <ele>244.9</ele>
        <time>2015-05-16T10:23:27Z</time>
      </trkpt>
      <trkpt lat="43.69553" lon="1.99222">
        <ele>242.61</ele>
        <time>2015-05-16T10:23:48Z</time>
      </trkpt>
      <trkpt lat="43.69548" lon="1.99246">
        <ele>241.49</ele>
        <time>2015-05-16T10:23:59Z</time>
      </trkpt>
      <trkpt lat="43.69536" lon="1.99267">
        <ele>240.32</ele>
        <time>2015-05-16T10:24:16Z</time>
      </trkpt>
      <trkpt lat="43.6952" lon="1.99275">
        <ele>239.44</ele>
        <time>2015-05-16T10:24:33Z</time>
      </trkpt>
      <trkpt lat="43.69507" lon="1.99283">
        <ele>238.72</ele>
        <time>2015-05-16T10:24:44Z</time>
      </trkpt>
      <trkpt lat="43.69491" lon="1.9929">
        <ele>238.13</ele>
        <time>2015-05-16T10:24:56Z</time>
      </trkpt>
      <trkpt lat="43.69469" lon="1.993">
        <ele>237.56</ele>
        <time>2015-05-16T10:25:15Z</time>
      </trkpt>
      <trkpt lat="43.69448" lon="1.99315">
        <ele>236.99</ele>
        <time>2015-05-16T10:25:37Z</time>
      </trkpt>
      <trkpt lat="43.69427" lon="1.99327">
        <ele>236.27</ele>
        <time>2015-05-16T10:25:58Z</time>
      </trkpt>
      <trkpt lat="43.69404" lon="1.99334">
        <ele>235.18</ele>
        <time>2015-05-16T10:26:20Z</time>
      </trkpt>
      <trkpt lat="43.69386" lon="1.99344">
        <ele>232.67</ele>
        <time>2015-05-16T10:26:43Z</time>
      </trkpt>
      <trkpt lat="43.69363" lon="1.9936">
        <ele>230.2</ele>
        <time>2015-05-16T10:27:05Z</time>
      </trkpt>
      <trkpt lat="43.69349" lon="1.99374">
        <ele>228.66</ele>
        <time>2015-05-16T10:27:24Z</time>
      </trkpt>
      <trkpt lat="43.69344" lon="1.99378">
        <ele>228.62</ele>
        <time>2015-05-16T10:27:43Z</time>
      </trkpt>
      <trkpt lat="43.69343" lon="1.99377">
        <ele>228.96</ele>
        <time>2015-05-16T10:28:07Z</time>
      </trkpt>
      <trkpt lat="43.69341" lon="1.99381">
        <ele>228.7</ele>
        <time>2015-05-16T10:28:19Z</time>
      </trkpt>
      <trkpt lat="43.69329" lon="1.99409">
        <ele>226.15</ele>
        <time>2015-05-16T10:28:40Z</time>
      </trkpt>
      <trkpt lat="43.69324" lon="1.99425">
        <ele>224.89</ele>
        <time>2015-05-16T10:28:50Z</time>
      </trkpt>
      <trkpt lat="43.69321" lon="1.99434">
        <ele>223.97</ele>
        <time>2015-05-16T10:28:56Z</time>
      </trkpt>
      <trkpt lat="43.69314" lon="1.99457">
        <ele>221.95</ele>
        <time>2015-05-16T10:29:13Z</time>
      </trkpt>
      <trkpt lat="43.69305" lon="1.99487">
        <ele>219.49</ele>
        <time>2015-05-16T10:29:32Z</time>
      </trkpt>
      <trkpt lat="43.69292" lon="1.99525">
        <ele>217.12</ele>
        <time>2015-05-16T10:29:57Z</time>
      </trkpt>
      <trkpt lat="43.69287" lon="1.99548">
        <ele>216.13</ele>
        <time>2015-05-16T10:30:13Z</time>
      </trkpt>
      <trkpt lat="43.69277" lon="1.99575">
        <ele>214.86</ele>
        <time>2015-05-16T10:30:31Z</time>
      </trkpt>
      <trkpt lat="43.69274" lon="1.99591">
        <ele>213.79</ele>
        <time>2015-05-16T10:30:46Z</time>
      </trkpt>
      <trkpt lat="43.69268" lon="1.99597">
        <ele>213.59</ele>
        <time>2015-05-16T10:31:13Z</time>
      </trkpt>
      <trkpt lat="43.69267" lon="1.99604">
        <ele>213.13</ele>
        <time>2015-05-16T10:31:33Z</time>
      </trkpt>
      <trkpt lat="43.69262" lon="1.9962">
        <ele>212.58</ele>
        <time>2015-05-16T10:31:53Z</time>
      </trkpt>
      <trkpt lat="43.69259" lon="1.99631">
        <ele>211.97</ele>
        <time>2015-05-16T10:32:14Z</time>
      </trkpt>
      <trkpt lat="43.69256" lon="1.99638">
        <ele>211.2</ele>
        <time>2015-05-16T10:32:28Z</time>
      </trkpt>
      <trkpt lat="43.69252" lon="1.99653">
        <ele>210.51</ele>
        <time>2015-05-16T10:32:43Z</time>
      </trkpt>
      <trkpt lat="43.69249" lon="1.99679">
        <ele>209.25</ele>
        <time>2015-05-16T10:33:02Z</time>
      </trkpt>
      <trkpt lat="43.69246" lon="1.99706">
        <ele>206.81</ele>
        <time>2015-05-16T10:33:21Z</time>
      </trkpt>
      <trkpt lat="43.69245" lon="1.99727">
        <ele>205.02</ele>
        <time>2015-05-16T10:33:37Z</time>
      </trkpt>
      <trkpt lat="43.69244" lon="1.99746">
        <ele>204.16</ele>
        <time>2015-05-16T10:33:50Z</time>
      </trkpt>
      <trkpt lat="43.69246" lon="1.99763">
        <ele>203.6</ele>
        <time>2015-05-16T10:34:00Z</time>
      </trkpt>
      <trkpt lat="43.69249" lon="1.9977">
        <ele>203.54</ele>
        <time>2015-05-16T10:34:05Z</time>
      </trkpt>
      <trkpt lat="43.69254" lon="1.99776">
        <ele>203.3</ele>
        <time>2015-05-16T10:34:11Z</time>
      </trkpt>
      <trkpt lat="43.69263" lon="1.99792">
        <ele>202.25</ele>
        <time>2015-05-16T10:34:24Z</time>
      </trkpt>
      <trkpt lat="43.69272" lon="1.99816">
        <ele>200.62</ele>
        <time>2015-05-16T10:34:42Z</time>
      </trkpt>
      <trkpt lat="43.69281" lon="1.99847">
        <ele>199.75</ele>
        <time>2015-05-16T10:35:00Z</time>
      </trkpt>
      <trkpt lat="43.6929" lon="1.99867">
        <ele>199.5</ele>
        <time>2015-05-16T10:35:15Z</time>
      </trkpt>
      <trkpt lat="43.69302" lon="1.99893">
        <ele>200.56</ele>
        <time>2015-05-16T10:35:33Z</time>
      </trkpt>
      <trkpt lat="43.69312" lon="1.99917">
        <ele>201.83</ele>
        <time>2015-05-16T10:35:51Z</time>
      </trkpt>
      <trkpt lat="43.69322" lon="1.99942">
        <ele>204.15</ele>
        <time>2015-05-16T10:36:10Z</time>
      </trkpt>
      <trkpt lat="43.69329" lon="1.99965">
        <ele>205.62</ele>
        <time>2015-05-16T10:36:27Z</time>
      </trkpt>
      <trkpt lat="43.69333" lon="1.99989">
        <ele>206.76</ele>
        <time>2015-05-16T10:36:44Z</time>
      </trkpt>
      <trkpt lat="43.69335" lon="2.00012">
        <ele>208.39</ele>
        <time>2015-05-16T10:37:00Z</time>
      </trkpt>
      <trkpt lat="43.69337" lon="2.00037">
        <ele>209.8</ele>
        <time>2015-05-16T10:37:18Z</time>
      </trkpt>
      <trkpt lat="43.69336" lon="2.0004">
        <ele>210.07</ele>
        <time>2015-05-16T10:37:20Z</time>
      </trkpt>
      <trkpt lat="43.69338" lon="2.0007">
        <ele>211.33</ele>
        <time>2015-05-16T10:37:39Z</time>
      </trkpt>
      <trkpt lat="43.69339" lon="2.00098">
        <ele>212.15</ele>
        <time>2015-05-16T10:37:57Z</time>
      </trkpt>
      <trkpt lat="43.69338" lon="2.00122">
        <ele>213.14</ele>
        <time>2015-05-16T10:38:13Z</time>
      </trkpt>
      <trkpt lat="43.69339" lon="2.00138">
        <ele>213.66</ele>
        <time>2015-05-16T10:38:33Z</time>
      </trkpt>
      <trkpt lat="43.69338" lon="2.00144">
        <ele>213.47</ele>
        <time>2015-05-16T10:38:57Z</time>
      </trkpt>
      <trkpt lat="43.69336" lon="2.0015">
        <ele>214.05</ele>
        <time>2015-05-16T10:39:15Z</time>
      </trkpt>
      <trkpt lat="43.69336" lon="2.00166">
        <ele>214.32</ele>
        <time>2015-05-16T10:39:37Z</time>
      </trkpt>
      <trkpt lat="43.69336" lon="2.00181">
        <ele>214.35</ele>
        <time>2015-05-16T10:39:56Z</time>
      </trkpt>
      <trkpt lat="43.69333" lon="2.00202">
        <ele>215.1</ele>
        <time>2015-05-16T10:40:12Z</time>
      </trkpt>
      <trkpt lat="43.69333" lon="2.00204">
        <ele>215.8</ele>
        <time>2015-05-16T10:40:35Z</time>
      </trkpt>
      <trkpt lat="43.69332" lon="2.00203">
        <ele>215.43</ele>
        <time>2015-05-16T10:41:00Z</time>
      </trkpt>
      <trkpt lat="43.69333" lon="2.00211">
        <ele>215.64</ele>
        <time>2015-05-16T10:41:27Z</time>
      </trkpt>
      <trkpt lat="43.69331" lon="2.00231">
        <ele>216.27</ele>
        <time>2015-05-16T10:41:42Z</time>
      </trkpt>
      <trkpt lat="43.69325" lon="2.00249">
        <ele>217.05</ele>
        <time>2015-05-16T10:41:55Z</time>
      </trkpt>
      <trkpt lat="43.69309" lon="2.00244">
        <ele>218.27</ele>
        <time>2015-05-16T10:42:15Z</time>
      </trkpt>
      <trkpt lat="43.69296" lon="2.00224">
        <ele>219.76</ele>
        <time>2015-05-16T10:42:37Z</time>
      </trkpt>
      <trkpt lat="43.69283" lon="2.00211">
        <ele>222.84</ele>
        <time>2015-05-16T10:42:55Z</time>
      </trkpt>
      <trkpt lat="43.69269" lon="2.00198">
        <ele>225.45</ele>
        <time>2015-05-16T10:43:14Z</time>
      </trkpt>
      <trkpt lat="43.69258" lon="2.00207">
        <ele>226.98</ele>
        <time>2015-05-16T10:43:34Z</time>
      </trkpt>
      <trkpt lat="43.69255" lon="2.00212">
        <ele>227.11</ele>
        <time>2015-05-16T10:43:38Z</time>
      </trkpt>
      <trkpt lat="43.6924" lon="2.00228">
        <ele>227.79</ele>
        <time>2015-05-16T10:43:59Z</time>
      </trkpt>
      <trkpt lat="43.69236" lon="2.0023">
        <ele>227.92</ele>
        <time>2015-05-16T10:44:02Z</time>
      </trkpt>
      <trkpt lat="43.69227" lon="2.00236">
        <ele>227.92</ele>
        <time>2015-05-16T10:44:11Z</time>
      </trkpt>
      <trkpt lat="43.69217" lon="2.00253">
        <ele>228.01</ele>
        <time>2015-05-16T10:44:28Z</time>
      </trkpt>
      <trkpt lat="43.69208" lon="2.0027">
        <ele>227.73</ele>
        <time>2015-05-16T10:44:46Z</time>
      </trkpt>
      <trkpt lat="43.69204" lon="2.0028">
        <ele>227.48</ele>
        <time>2015-05-16T10:44:55Z</time>
      </trkpt>
      <trkpt lat="43.69192" lon="2.00311">
        <ele>226.68</ele>
        <time>2015-05-16T10:45:14Z</time>
      </trkpt>
      <trkpt lat="43.69186" lon="2.00329">
        <ele>225.93</ele>
        <time>2015-05-16T10:45:27Z</time>
      </trkpt>
      <trkpt lat="43.69174" lon="2.00356">
        <ele>225.03</ele>
        <time>2015-05-16T10:45:47Z</time>
      </trkpt>
      <trkpt lat="43.69165" lon="2.00376">
        <ele>224.53</ele>
        <time>2015-05-16T10:46:02Z</time>
      </trkpt>
      <trkpt lat="43.69155" lon="2.00397">
        <ele>224.91</ele>
        <time>2015-05-16T10:46:18Z</time>
      </trkpt>
      <trkpt lat="43.69152" lon="2.00405">
        <ele>224.82</ele>
        <time>2015-05-16T10:46:23Z</time>
      </trkpt>
      <trkpt lat="43.6914" lon="2.00428">
        <ele>225.05</ele>
        <time>2015-05-16T10:46:39Z</time>
      </trkpt>
      <trkpt lat="43.69139" lon="2.00439">
        <ele>225.25</ele>
        <time>2015-05-16T10:46:56Z</time>
      </trkpt>
      <trkpt lat="43.69142" lon="2.00435">
        <ele>225.43</ele>
        <time>2015-05-16T10:47:15Z</time>
      </trkpt>
      <trkpt lat="43.69143" lon="2.00435">
        <ele>225.34</ele>
        <time>2015-05-16T10:47:37Z</time>
      </trkpt>
      <trkpt lat="43.69142" lon="2.00435">
        <ele>225.31</ele>
        <time>2015-05-16T10:47:42Z</time>
      </trkpt>
      <trkpt lat="43.69138" lon="2.00439">
        <ele>225.09</ele>
        <time>2015-05-16T11:33:23Z</time>
      </trkpt>
      <trkpt lat="43.69137" lon="2.00442">
        <ele>225.29</ele>
        <time>2015-05-16T11:33:45Z</time>
      </trkpt>
      <trkpt lat="43.69136" lon="2.0045">
        <ele>225.3</ele>
        <time>2015-05-16T11:34:06Z</time>
      </trkpt>
      <trkpt lat="43.69131" lon="2.00465">
        <ele>225.5</ele>
        <time>2015-05-16T11:34:26Z</time>
      </trkpt>
      <trkpt lat="43.69122" lon="2.00489">
        <ele>226.25</ele>
        <time>2015-05-16T11:34:50Z</time>
      </trkpt>
      <trkpt lat="43.69109" lon="2.00508">
        <ele>227.87</ele>
        <time>2015-05-16T11:35:12Z</time>
      </trkpt>
      <trkpt lat="43.69097" lon="2.00525">
        <ele>229.01</ele>
        <time>2015-05-16T11:35:29Z</time>
      </trkpt>
      <trkpt lat="43.69089" lon="2.0054">
        <ele>229.74</ele>
        <time>2015-05-16T11:35:47Z</time>
      </trkpt>
      <trkpt lat="43.69076" lon="2.00554">
        <ele>231.37</ele>
        <time>2015-05-16T11:36:05Z</time>
      </trkpt>
      <trkpt lat="43.69064" lon="2.00571">
        <ele>232.02</ele>
        <time>2015-05-16T11:36:23Z</time>
      </trkpt>
      <trkpt lat="43.69053" lon="2.00588">
        <ele>232.73</ele>
        <time>2015-05-16T11:36:40Z</time>
      </trkpt>
      <trkpt lat="43.69048" lon="2.00604">
        <ele>233.72</ele>
        <time>2015-05-16T11:36:54Z</time>
      </trkpt>
      <trkpt lat="43.69046" lon="2.0062">
        <ele>233.55</ele>
        <time>2015-05-16T11:37:09Z</time>
      </trkpt>
      <trkpt lat="43.69045" lon="2.00644">
        <ele>231.98</ele>
        <time>2015-05-16T11:37:28Z</time>
      </trkpt>
      <trkpt lat="43.69043" lon="2.00668">
        <ele>231.05</ele>
        <time>2015-05-16T11:37:45Z</time>
      </trkpt>
      <trkpt lat="43.69041" lon="2.00686">
        <ele>229.88</ele>
        <time>2015-05-16T11:37:59Z</time>
      </trkpt>
      <trkpt lat="43.6904" lon="2.00693">
        <ele>229.49</ele>
        <time>2015-05-16T11:38:04Z</time>
      </trkpt>
      <trkpt lat="43.69039" lon="2.00719">
        <ele>227.25</ele>
        <time>2015-05-16T11:38:22Z</time>
      </trkpt>
      <trkpt lat="43.6904" lon="2.00742">
        <ele>225.96</ele>
        <time>2015-05-16T11:38:38Z</time>
      </trkpt>
      <trkpt lat="43.69041" lon="2.00763">
        <ele>224.16</ele>
        <time>2015-05-16T11:38:52Z</time>
      </trkpt>
      <trkpt lat="43.69043" lon="2.00788">
        <ele>222.7</ele>
        <time>2015-05-16T11:39:09Z</time>
      </trkpt>
      <trkpt lat="43.69042" lon="2.00816">
        <ele>221.02</ele>
        <time>2015-05-16T11:39:28Z</time>
      </trkpt>
      <trkpt lat="43.69041" lon="2.00844">
        <ele>219.82</ele>
        <time>2015-05-16T11:39:49Z</time>
      </trkpt>
      <trkpt lat="43.69042" lon="2.00857">
        <ele>219.72</ele>
        <time>2015-05-16T11:39:59Z</time>
      </trkpt>
      <trkpt lat="43.69034" lon="2.00883">
        <ele>218.16</ele>
        <time>2015-05-16T11:40:17Z</time>
      </trkpt>
      <trkpt lat="43.69023" lon="2.00905">
        <ele>216.24</ele>
        <time>2015-05-16T11:40:36Z</time>
      </trkpt>
      <trkpt lat="43.69011" lon="2.00926">
        <ele>214.94</ele>
        <time>2015-05-16T11:40:56Z</time>
      </trkpt>
      <trkpt lat="43.68995" lon="2.00944">
        <ele>213.91</ele>
        <time>2015-05-16T11:41:15Z</time>
      </trkpt>
      <trkpt lat="43.68976" lon="2.00971">
        <ele>212.79</ele>
        <time>2015-05-16T11:41:38Z</time>
      </trkpt>
      <trkpt lat="43.68961" lon="2.0099">
        <ele>211.9</ele>
        <time>2015-05-16T11:41:58Z</time>
      </trkpt>
      <trkpt lat="43.68943" lon="2.00999">
        <ele>210.3</ele>
        <time>2015-05-16T11:42:17Z</time>
      </trkpt>
      <trkpt lat="43.68922" lon="2.01006">
        <ele>209.18</ele>
        <time>2015-05-16T11:42:36Z</time>
      </trkpt>
      <trkpt lat="43.68902" lon="2.01024">
        <ele>208</ele>
        <time>2015-05-16T11:42:56Z</time>
      </trkpt>
      <trkpt lat="43.68886" lon="2.01038">
        <ele>207</ele>
        <time>2015-05-16T11:43:16Z</time>
      </trkpt>
      <trkpt lat="43.68872" lon="2.01055">
        <ele>205.97</ele>
        <time>2015-05-16T11:43:35Z</time>
      </trkpt>
      <trkpt lat="43.68852" lon="2.01067">
        <ele>204.34</ele>
        <time>2015-05-16T11:43:54Z</time>
      </trkpt>
      <trkpt lat="43.68846" lon="2.01066">
        <ele>203.73</ele>
        <time>2015-05-16T11:44:09Z</time>
      </trkpt>
      <trkpt lat="43.68829" lon="2.01073">
        <ele>203.88</ele>
        <time>2015-05-16T11:44:33Z</time>
      </trkpt>
      <trkpt lat="43.6881" lon="2.01091">
        <ele>202.51</ele>
        <time>2015-05-16T11:44:51Z</time>
      </trkpt>
      <trkpt lat="43.68798" lon="2.0111">
        <ele>200.5</ele>
        <time>2015-05-16T11:45:09Z</time>
      </trkpt>
      <trkpt lat="43.68791" lon="2.01123">
        <ele>199.64</ele>
        <time>2015-05-16T11:45:19Z</time>
      </trkpt>
      <trkpt lat="43.68778" lon="2.01142">
        <ele>197.2</ele>
        <time>2015-05-16T11:45:37Z</time>
      </trkpt>
      <trkpt lat="43.68767" lon="2.01158">
        <ele>194.96</ele>
        <time>2015-05-16T11:45:55Z</time>
      </trkpt>
      <trkpt lat="43.68759" lon="2.01163">
        <ele>193.49</ele>
        <time>2015-05-16T11:46:15Z</time>
      </trkpt>
      <trkpt lat="43.68746" lon="2.01161">
        <ele>192.86</ele>
        <time>2015-05-16T11:46:32Z</time>
      </trkpt>
      <trkpt lat="43.6874" lon="2.01149">
        <ele>192.71</ele>
        <time>2015-05-16T11:46:44Z</time>
      </trkpt>
      <trkpt lat="43.68726" lon="2.01126">
        <ele>192.52</ele>
        <time>2015-05-16T11:46:59Z</time>
      </trkpt>
      <trkpt lat="43.68713" lon="2.01108">
        <ele>192.27</ele>
        <time>2015-05-16T11:47:16Z</time>
      </trkpt>
      <trkpt lat="43.68709" lon="2.01101">
        <ele>192.16</ele>
        <time>2015-05-16T11:47:22Z</time>
      </trkpt>
      <trkpt lat="43.68701" lon="2.01084">
        <ele>192.13</ele>
        <time>2015-05-16T11:47:34Z</time>
      </trkpt>
      <trkpt lat="43.68693" lon="2.0106">
        <ele>191.86</ele>
        <time>2015-05-16T11:47:52Z</time>
      </trkpt>
      <trkpt lat="43.68687" lon="2.01025">
        <ele>191.46</ele>
        <time>2015-05-16T11:48:14Z</time>
      </trkpt>
      <trkpt lat="43.68678" lon="2.00986">
        <ele>191.26</ele>
        <time>2015-05-16T11:48:37Z</time>
      </trkpt>
      <trkpt lat="43.68672" lon="2.00971">
        <ele>191.42</ele>
        <time>2015-05-16T11:48:46Z</time>
      </trkpt>
      <trkpt lat="43.68665" lon="2.00958">
        <ele>191.3</ele>
        <time>2015-05-16T11:49:00Z</time>
      </trkpt>
      <trkpt lat="43.68656" lon="2.0093">
        <ele>191.23</ele>
        <time>2015-05-16T11:49:20Z</time>
      </trkpt>
      <trkpt lat="43.68655" lon="2.00928">
        <ele>191.21</ele>
        <time>2015-05-16T11:49:21Z</time>
      </trkpt>
      <trkpt lat="43.68642" lon="2.00931">
        <ele>188.89</ele>
        <time>2015-05-16T11:49:41Z</time>
      </trkpt>
      <trkpt lat="43.68624" lon="2.00946">
        <ele>187.21</ele>
        <time>2015-05-16T11:49:59Z</time>
      </trkpt>
      <trkpt lat="43.68608" lon="2.00956">
        <ele>186.19</ele>
        <time>2015-05-16T11:50:19Z</time>
      </trkpt>
      <trkpt lat="43.68605" lon="2.0096">
        <ele>186</ele>
        <time>2015-05-16T11:50:24Z</time>
      </trkpt>
      <trkpt lat="43.68602" lon="2.00964">
        <ele>185.94</ele>
        <time>2015-05-16T11:50:27Z</time>
      </trkpt>
      <trkpt lat="43.68583" lon="2.00986">
        <ele>185.97</ele>
        <time>2015-05-16T11:50:43Z</time>
      </trkpt>
      <trkpt lat="43.6857" lon="2.01003">
        <ele>186.15</ele>
        <time>2015-05-16T11:50:58Z</time>
      </trkpt>
      <trkpt lat="43.68556" lon="2.01021">
        <ele>186.76</ele>
        <time>2015-05-16T11:51:14Z</time>
      </trkpt>
      <trkpt lat="43.68544" lon="2.0104">
        <ele>188.06</ele>
        <time>2015-05-16T11:51:34Z</time>
      </trkpt>
      <trkpt lat="43.68534" lon="2.01054">
        <ele>190.74</ele>
        <time>2015-05-16T11:51:52Z</time>
      </trkpt>
      <trkpt lat="43.68521" lon="2.01065">
        <ele>193.31</ele>
        <time>2015-05-16T11:52:12Z</time>
      </trkpt>
      <trkpt lat="43.68512" lon="2.01074">
        <ele>195.91</ele>
        <time>2015-05-16T11:52:29Z</time>
      </trkpt>
      <trkpt lat="43.68504" lon="2.01084">
        <ele>197.27</ele>
        <time>2015-05-16T11:52:48Z</time>
      </trkpt>
      <trkpt lat="43.68494" lon="2.01096">
        <ele>198.89</ele>
        <time>2015-05-16T11:53:09Z</time>
      </trkpt>
      <trkpt lat="43.68484" lon="2.01106">
        <ele>200.15</ele>
        <time>2015-05-16T11:53:32Z</time>
      </trkpt>
      <trkpt lat="43.68472" lon="2.01123">
        <ele>201.27</ele>
        <time>2015-05-16T11:53:53Z</time>
      </trkpt>
      <trkpt lat="43.68458" lon="2.01138">
        <ele>201.85</ele>
        <time>2015-05-16T11:54:18Z</time>
      </trkpt>
      <trkpt lat="43.68445" lon="2.01161">
        <ele>202.05</ele>
        <time>2015-05-16T11:54:41Z</time>
      </trkpt>
      <trkpt lat="43.68435" lon="2.01182">
        <ele>203.37</ele>
        <time>2015-05-16T11:55:01Z</time>
      </trkpt>
      <trkpt lat="43.68426" lon="2.01198">
        <ele>205.07</ele>
        <time>2015-05-16T11:55:20Z</time>
      </trkpt>
      <trkpt lat="43.68422" lon="2.01221">
        <ele>206.76</ele>
        <time>2015-05-16T11:55:45Z</time>
      </trkpt>
      <trkpt lat="43.68417" lon="2.01244">
        <ele>208.02</ele>
        <time>2015-05-16T11:56:04Z</time>
      </trkpt>
      <trkpt lat="43.68419" lon="2.01262">
        <ele>209.62</ele>
        <time>2015-05-16T11:56:24Z</time>
      </trkpt>
      <trkpt lat="43.68422" lon="2.01286">
        <ele>211.59</ele>
        <time>2015-05-16T11:56:45Z</time>
      </trkpt>
      <trkpt lat="43.68427" lon="2.013">
        <ele>213.72</ele>
        <time>2015-05-16T11:57:04Z</time>
      </trkpt>
      <trkpt lat="43.68429" lon="2.01319">
        <ele>215.85</ele>
        <time>2015-05-16T11:57:23Z</time>
      </trkpt>
      <trkpt lat="43.68434" lon="2.01342">
        <ele>217.97</ele>
        <time>2015-05-16T11:57:44Z</time>
      </trkpt>
      <trkpt lat="43.68434" lon="2.01344">
        <ele>218.13</ele>
        <time>2015-05-16T11:57:46Z</time>
      </trkpt>
      <trkpt lat="43.68434" lon="2.0135">
        <ele>218.42</ele>
        <time>2015-05-16T11:57:50Z</time>
      </trkpt>
      <trkpt lat="43.68431" lon="2.01361">
        <ele>218.81</ele>
        <time>2015-05-16T11:58:13Z</time>
      </trkpt>
      <trkpt lat="43.68436" lon="2.01373">
        <ele>221.25</ele>
        <time>2015-05-16T11:58:35Z</time>
      </trkpt>
      <trkpt lat="43.68441" lon="2.0139">
        <ele>223.19</ele>
        <time>2015-05-16T11:58:56Z</time>
      </trkpt>
      <trkpt lat="43.68441" lon="2.01419">
        <ele>225.72</ele>
        <time>2015-05-16T11:59:18Z</time>
      </trkpt>
      <trkpt lat="43.68444" lon="2.01437">
        <ele>228.78</ele>
        <time>2015-05-16T11:59:39Z</time>
      </trkpt>
      <trkpt lat="43.68451" lon="2.01449">
        <ele>231.95</ele>
        <time>2015-05-16T11:59:57Z</time>
      </trkpt>
      <trkpt lat="43.68455" lon="2.01472">
        <ele>235.08</ele>
        <time>2015-05-16T12:00:21Z</time>
      </trkpt>
      <trkpt lat="43.68459" lon="2.01485">
        <ele>237.94</ele>
        <time>2015-05-16T12:00:39Z</time>
      </trkpt>
      <trkpt lat="43.6846" lon="2.0151">
        <ele>240.78</ele>
        <time>2015-05-16T12:01:01Z</time>
      </trkpt>
      <trkpt lat="43.68458" lon="2.01537">
        <ele>243.12</ele>
        <time>2015-05-16T12:01:24Z</time>
      </trkpt>
      <trkpt lat="43.68446" lon="2.01558">
        <ele>242.81</ele>
        <time>2015-05-16T12:01:43Z</time>
      </trkpt>
      <trkpt lat="43.68444" lon="2.01563">
        <ele>242.9</ele>
        <time>2015-05-16T12:01:47Z</time>
      </trkpt>
      <trkpt lat="43.68436" lon="2.01583">
        <ele>245.43</ele>
        <time>2015-05-16T12:02:10Z</time>
      </trkpt>
      <trkpt lat="43.68433" lon="2.01607">
        <ele>247.47</ele>
        <time>2015-05-16T12:02:34Z</time>
      </trkpt>
      <trkpt lat="43.68427" lon="2.01623">
        <ele>248.11</ele>
        <time>2015-05-16T12:03:06Z</time>
      </trkpt>
      <trkpt lat="43.68425" lon="2.01642">
        <ele>250.8</ele>
        <time>2015-05-16T12:03:26Z</time>
      </trkpt>
      <trkpt lat="43.68421" lon="2.01656">
        <ele>252.99</ele>
        <time>2015-05-16T12:03:47Z</time>
      </trkpt>
      <trkpt lat="43.68419" lon="2.01662">
        <ele>253.38</ele>
        <time>2015-05-16T12:04:13Z</time>
      </trkpt>
      <trkpt lat="43.68419" lon="2.01664">
        <ele>253.79</ele>
        <time>2015-05-16T12:04:40Z</time>
      </trkpt>
      <trkpt lat="43.68419" lon="2.01665">
        <ele>253.93</ele>
        <time>2015-05-16T12:05:06Z</time>
      </trkpt>
      <trkpt lat="43.6842" lon="2.01666">
        <ele>253.89</ele>
        <time>2015-05-16T12:05:34Z</time>
      </trkpt>
      <trkpt lat="43.6842" lon="2.01665">
        <ele>253.98</ele>
        <time>2015-05-16T12:06:04Z</time>
      </trkpt>
      <trkpt lat="43.68411" lon="2.01669">
        <ele>254.41</ele>
        <time>2015-05-16T12:06:24Z</time>
      </trkpt>
      <trkpt lat="43.68394" lon="2.0167">
        <ele>253.85</ele>
        <time>2015-05-16T12:06:41Z</time>
      </trkpt>
      <trkpt lat="43.68375" lon="2.01666">
        <ele>254.6</ele>
        <time>2015-05-16T12:07:02Z</time>
      </trkpt>
      <trkpt lat="43.68355" lon="2.01663">
        <ele>255.7</ele>
        <time>2015-05-16T12:07:20Z</time>
      </trkpt>
      <trkpt lat="43.68349" lon="2.01664">
        <ele>255.97</ele>
        <time>2015-05-16T12:07:25Z</time>
      </trkpt>
      <trkpt lat="43.68333" lon="2.01662">
        <ele>256.58</ele>
        <time>2015-05-16T12:07:40Z</time>
      </trkpt>
      <trkpt lat="43.68311" lon="2.01653">
        <ele>257.13</ele>
        <time>2015-05-16T12:08:00Z</time>
      </trkpt>
      <trkpt lat="43.68307" lon="2.0165">
        <ele>257.66</ele>
        <time>2015-05-16T12:08:09Z</time>
      </trkpt>
      <trkpt lat="43.68304" lon="2.01647">
        <ele>257.74</ele>
        <time>2015-05-16T12:08:13Z</time>
      </trkpt>
      <trkpt lat="43.68292" lon="2.01635">
        <ele>257.99</ele>
        <time>2015-05-16T12:08:31Z</time>
      </trkpt>
      <trkpt lat="43.68284" lon="2.01627">
        <ele>257.79</ele>
        <time>2015-05-16T12:08:45Z</time>
      </trkpt>
      <trkpt lat="43.6828" lon="2.01624">
        <ele>257.83</ele>
        <time>2015-05-16T12:08:54Z</time>
      </trkpt>
      <trkpt lat="43.68275" lon="2.0162">
        <ele>258</ele>
        <time>2015-05-16T12:09:00Z</time>
      </trkpt>
      <trkpt lat="43.68259" lon="2.01612">
        <ele>258.74</ele>
        <time>2015-05-16T12:09:16Z</time>
      </trkpt>
      <trkpt lat="43.68245" lon="2.01609">
        <ele>259.18</ele>
        <time>2015-05-16T12:09:31Z</time>
      </trkpt>
      <trkpt lat="43.68234" lon="2.01607">
        <ele>259.59</ele>
        <time>2015-05-16T12:09:51Z</time>
      </trkpt>
      <trkpt lat="43.68228" lon="2.01606">
        <ele>259.59</ele>
        <time>2015-05-16T12:09:58Z</time>
      </trkpt>
      <trkpt lat="43.6821" lon="2.01606">
        <ele>259.84</ele>
        <time>2015-05-16T12:10:14Z</time>
      </trkpt>
      <trkpt lat="43.68194" lon="2.01603">
        <ele>260.54</ele>
        <time>2015-05-16T12:10:32Z</time>
      </trkpt>
      <trkpt lat="43.6818" lon="2.01601">
        <ele>261.11</ele>
        <time>2015-05-16T12:10:49Z</time>
      </trkpt>
      <trkpt lat="43.68161" lon="2.01584">
        <ele>261.79</ele>
        <time>2015-05-16T12:11:11Z</time>
      </trkpt>
      <trkpt lat="43.68156" lon="2.0156">
        <ele>261.03</ele>
        <time>2015-05-16T12:11:31Z</time>
      </trkpt>
      <trkpt lat="43.68154" lon="2.01555">
        <ele>261.06</ele>
        <time>2015-05-16T12:11:34Z</time>
      </trkpt>
      <trkpt lat="43.68153" lon="2.01551">
        <ele>261.06</ele>
        <time>2015-05-16T12:11:37Z</time>
      </trkpt>
      <trkpt lat="43.68146" lon="2.01525">
        <ele>261.11</ele>
        <time>2015-05-16T12:11:55Z</time>
      </trkpt>
      <trkpt lat="43.68138" lon="2.015">
        <ele>260.6</ele>
        <time>2015-05-16T12:12:13Z</time>
      </trkpt>
      <trkpt lat="43.68128" lon="2.01471">
        <ele>260.24</ele>
        <time>2015-05-16T12:12:32Z</time>
      </trkpt>
      <trkpt lat="43.68122" lon="2.01447">
        <ele>260.79</ele>
        <time>2015-05-16T12:12:49Z</time>
      </trkpt>
      <trkpt lat="43.68114" lon="2.01417">
        <ele>262.25</ele>
        <time>2015-05-16T12:13:10Z</time>
      </trkpt>
      <trkpt lat="43.68107" lon="2.01391">
        <ele>262.7</ele>
        <time>2015-05-16T12:13:29Z</time>
      </trkpt>
      <trkpt lat="43.68101" lon="2.01372">
        <ele>261.74</ele>
        <time>2015-05-16T12:13:48Z</time>
      </trkpt>
      <trkpt lat="43.68096" lon="2.01358">
        <ele>261.73</ele>
        <time>2015-05-16T12:13:59Z</time>
      </trkpt>
      <trkpt lat="43.68089" lon="2.0133">
        <ele>260.91</ele>
        <time>2015-05-16T12:14:18Z</time>
      </trkpt>
      <trkpt lat="43.6808" lon="2.01308">
        <ele>260.59</ele>
        <time>2015-05-16T12:14:34Z</time>
      </trkpt>
      <trkpt lat="43.68071" lon="2.01284">
        <ele>259.28</ele>
        <time>2015-05-16T12:14:50Z</time>
      </trkpt>
      <trkpt lat="43.68061" lon="2.01259">
        <ele>257.34</ele>
        <time>2015-05-16T12:15:08Z</time>
      </trkpt>
      <trkpt lat="43.68046" lon="2.0123">
        <ele>255.22</ele>
        <time>2015-05-16T12:15:29Z</time>
      </trkpt>
      <trkpt lat="43.68035" lon="2.01202">
        <ele>254.07</ele>
        <time>2015-05-16T12:15:49Z</time>
      </trkpt>
      <trkpt lat="43.68015" lon="2.01162">
        <ele>253.19</ele>
        <time>2015-05-16T12:16:10Z</time>
      </trkpt>
      <trkpt lat="43.68009" lon="2.01146">
        <ele>253.21</ele>
        <time>2015-05-16T12:16:24Z</time>
      </trkpt>
      <trkpt lat="43.68001" lon="2.01124">
        <ele>252.71</ele>
        <time>2015-05-16T12:16:41Z</time>
      </trkpt>
      <trkpt lat="43.67989" lon="2.01096">
        <ele>251</ele>
        <time>2015-05-16T12:16:58Z</time>
      </trkpt>
      <trkpt lat="43.67978" lon="2.01068">
        <ele>248.77</ele>
        <time>2015-05-16T12:17:17Z</time>
      </trkpt>
      <trkpt lat="43.67974" lon="2.01056">
        <ele>246.5</ele>
        <time>2015-05-16T12:17:34Z</time>
      </trkpt>
      <trkpt lat="43.67973" lon="2.01054">
        <ele>246.44</ele>
        <time>2015-05-16T12:17:35Z</time>
      </trkpt>
      <trkpt lat="43.67968" lon="2.01025">
        <ele>244.51</ele>
        <time>2015-05-16T12:17:53Z</time>
      </trkpt>
      <trkpt lat="43.67963" lon="2.01001">
        <ele>242.38</ele>
        <time>2015-05-16T12:18:10Z</time>
      </trkpt>
      <trkpt lat="43.67962" lon="2.00998">
        <ele>242.19</ele>
        <time>2015-05-16T12:18:12Z</time>
      </trkpt>
      <trkpt lat="43.67961" lon="2.00985">
        <ele>240.24</ele>
        <time>2015-05-16T12:18:32Z</time>
      </trkpt>
      <trkpt lat="43.67961" lon="2.00981">
        <ele>239.72</ele>
        <time>2015-05-16T12:18:58Z</time>
      </trkpt>
      <trkpt lat="43.67961" lon="2.00974">
        <ele>239.27</ele>
        <time>2015-05-16T12:19:11Z</time>
      </trkpt>
      <trkpt lat="43.67958" lon="2.00951">
        <ele>237.55</ele>
        <time>2015-05-16T12:19:27Z</time>
      </trkpt>
      <trkpt lat="43.67958" lon="2.00945">
        <ele>236.92</ele>
        <time>2015-05-16T12:19:31Z</time>
      </trkpt>
      <trkpt lat="43.67958" lon="2.00912">
        <ele>234.43</ele>
        <time>2015-05-16T12:19:53Z</time>
      </trkpt>
      <trkpt lat="43.67955" lon="2.00888">
        <ele>232.74</ele>
        <time>2015-05-16T12:20:09Z</time>
      </trkpt>
      <trkpt lat="43.67954" lon="2.00852">
        <ele>230.85</ele>
        <time>2015-05-16T12:20:32Z</time>
      </trkpt>
      <trkpt lat="43.67954" lon="2.00821">
        <ele>229.05</ele>
        <time>2015-05-16T12:20:51Z</time>
      </trkpt>
      <trkpt lat="43.67954" lon="2.00786">
        <ele>228.02</ele>
        <time>2015-05-16T12:21:13Z</time>
      </trkpt>
      <trkpt lat="43.67954" lon="2.00779">
        <ele>228.48</ele>
        <time>2015-05-16T12:21:32Z</time>
      </trkpt>
      <trkpt lat="43.67954" lon="2.00779">
        <ele>227.76</ele>
        <time>2015-05-16T12:21:59Z</time>
      </trkpt>
      <trkpt lat="43.67954" lon="2.00777">
        <ele>227.76</ele>
        <time>2015-05-16T12:22:19Z</time>
      </trkpt>
      <trkpt lat="43.67955" lon="2.00762">
        <ele>227.65</ele>
        <time>2015-05-16T12:22:35Z</time>
      </trkpt>
      <trkpt lat="43.67953" lon="2.00744">
        <ele>227.2</ele>
        <time>2015-05-16T12:22:51Z</time>
      </trkpt>
      <trkpt lat="43.67953" lon="2.00741">
        <ele>226.85</ele>
        <time>2015-05-16T12:22:55Z</time>
      </trkpt>
      <trkpt lat="43.67953" lon="2.00737">
        <ele>226.61</ele>
        <time>2015-05-16T12:23:07Z</time>
      </trkpt>
      <trkpt lat="43.67952" lon="2.00724">
        <ele>226.4</ele>
        <time>2015-05-16T12:23:22Z</time>
      </trkpt>
      <trkpt lat="43.67952" lon="2.0072">
        <ele>226.31</ele>
        <time>2015-05-16T12:23:25Z</time>
      </trkpt>
      <trkpt lat="43.67951" lon="2.0071">
        <ele>226.1</ele>
        <time>2015-05-16T12:23:31Z</time>
      </trkpt>
      <trkpt lat="43.6794" lon="2.00679">
        <ele>224.3</ele>
        <time>2015-05-16T12:23:53Z</time>
      </trkpt>
      <trkpt lat="43.67923" lon="2.00657">
        <ele>222.13</ele>
        <time>2015-05-16T12:24:13Z</time>
      </trkpt>
      <trkpt lat="43.67905" lon="2.00634">
        <ele>220.38</ele>
        <time>2015-05-16T12:24:34Z</time>
      </trkpt>
      <trkpt lat="43.67885" lon="2.00606">
        <ele>218.4</ele>
        <time>2015-05-16T12:24:58Z</time>
      </trkpt>
      <trkpt lat="43.67869" lon="2.00584">
        <ele>216.57</ele>
        <time>2015-05-16T12:25:17Z</time>
      </trkpt>
      <trkpt lat="43.67853" lon="2.00562">
        <ele>216.3</ele>
        <time>2015-05-16T12:25:36Z</time>
      </trkpt>
      <trkpt lat="43.67841" lon="2.00543">
        <ele>215.68</ele>
        <time>2015-05-16T12:25:53Z</time>
      </trkpt>
      <trkpt lat="43.67827" lon="2.00523">
        <ele>215.17</ele>
        <time>2015-05-16T12:26:10Z</time>
      </trkpt>
      <trkpt lat="43.67825" lon="2.00521">
        <ele>215.04</ele>
        <time>2015-05-16T12:26:12Z</time>
      </trkpt>
      <trkpt lat="43.678" lon="2.00489">
        <ele>213.85</ele>
        <time>2015-05-16T12:26:39Z</time>
      </trkpt>
      <trkpt lat="43.67796" lon="2.00486">
        <ele>213.81</ele>
        <time>2015-05-16T12:26:43Z</time>
      </trkpt>
      <trkpt lat="43.67792" lon="2.00481">
        <ele>213.48</ele>
        <time>2015-05-16T12:26:48Z</time>
      </trkpt>
      <trkpt lat="43.67767" lon="2.00465">
        <ele>214.62</ele>
        <time>2015-05-16T12:27:12Z</time>
      </trkpt>
      <trkpt lat="43.67744" lon="2.00454">
        <ele>215.33</ele>
        <time>2015-05-16T12:27:32Z</time>
      </trkpt>
      <trkpt lat="43.67717" lon="2.00442">
        <ele>216.01</ele>
        <time>2015-05-16T12:27:54Z</time>
      </trkpt>
      <trkpt lat="43.67695" lon="2.00431">
        <ele>216.07</ele>
        <time>2015-05-16T12:28:14Z</time>
      </trkpt>
      <trkpt lat="43.67678" lon="2.00423">
        <ele>216.73</ele>
        <time>2015-05-16T12:28:30Z</time>
      </trkpt>
      <trkpt lat="43.67668" lon="2.00417">
        <ele>216.62</ele>
        <time>2015-05-16T12:28:42Z</time>
      </trkpt>
      <trkpt lat="43.67662" lon="2.00416">
        <ele>216.77</ele>
        <time>2015-05-16T12:28:47Z</time>
      </trkpt>
      <trkpt lat="43.67633" lon="2.00402">
        <ele>216.66</ele>
        <time>2015-05-16T12:29:12Z</time>
      </trkpt>
      <trkpt lat="43.67612" lon="2.00391">
        <ele>215.79</ele>
        <time>2015-05-16T12:29:31Z</time>
      </trkpt>
      <trkpt lat="43.6759" lon="2.00379">
        <ele>215.74</ele>
        <time>2015-05-16T12:29:51Z</time>
      </trkpt>
      <trkpt lat="43.6757" lon="2.00367">
        <ele>215.38</ele>
        <time>2015-05-16T12:30:10Z</time>
      </trkpt>
      <trkpt lat="43.67553" lon="2.00357">
        <ele>214.39</ele>
        <time>2015-05-16T12:30:26Z</time>
      </trkpt>
      <trkpt lat="43.67529" lon="2.00341">
        <ele>213.99</ele>
        <time>2015-05-16T12:30:49Z</time>
      </trkpt>
      <trkpt lat="43.67509" lon="2.00328">
        <ele>213.44</ele>
        <time>2015-05-16T12:31:09Z</time>
      </trkpt>
      <trkpt lat="43.67487" lon="2.00311">
        <ele>212.9</ele>
        <time>2015-05-16T12:31:31Z</time>
      </trkpt>
      <trkpt lat="43.67463" lon="2.00293">
        <ele>212.88</ele>
        <time>2015-05-16T12:31:53Z</time>
      </trkpt>
      <trkpt lat="43.67445" lon="2.00279">
        <ele>212.36</ele>
        <time>2015-05-16T12:32:12Z</time>
      </trkpt>
      <trkpt lat="43.67431" lon="2.00267">
        <ele>212.17</ele>
        <time>2015-05-16T12:32:28Z</time>
      </trkpt>
      <trkpt lat="43.67408" lon="2.00248">
        <ele>211.89</ele>
        <time>2015-05-16T12:32:51Z</time>
      </trkpt>
      <trkpt lat="43.67391" lon="2.00235">
        <ele>211.63</ele>
        <time>2015-05-16T12:33:10Z</time>
      </trkpt>
      <trkpt lat="43.6737" lon="2.00218">
        <ele>211.66</ele>
        <time>2015-05-16T12:33:31Z</time>
      </trkpt>
      <trkpt lat="43.67347" lon="2.00202">
        <ele>210.87</ele>
        <time>2015-05-16T12:33:55Z</time>
      </trkpt>
      <trkpt lat="43.67324" lon="2.00185">
        <ele>210.72</ele>
        <time>2015-05-16T12:34:17Z</time>
      </trkpt>
      <trkpt lat="43.67306" lon="2.00173">
        <ele>210.56</ele>
        <time>2015-05-16T12:34:34Z</time>
      </trkpt>
      <trkpt lat="43.67284" lon="2.00157">
        <ele>210.07</ele>
        <time>2015-05-16T12:34:54Z</time>
      </trkpt>
      <trkpt lat="43.67278" lon="2.00153">
        <ele>210.07</ele>
        <time>2015-05-16T12:35:00Z</time>
      </trkpt>
      <trkpt lat="43.67259" lon="2.0014">
        <ele>209.84</ele>
        <time>2015-05-16T12:35:18Z</time>
      </trkpt>
      <trkpt lat="43.67236" lon="2.00124">
        <ele>208.77</ele>
        <time>2015-05-16T12:35:40Z</time>
      </trkpt>
      <trkpt lat="43.67215" lon="2.00113">
        <ele>209.04</ele>
        <time>2015-05-16T12:36:00Z</time>
      </trkpt>
      <trkpt lat="43.67199" lon="2.00105">
        <ele>208.88</ele>
        <time>2015-05-16T12:36:17Z</time>
      </trkpt>
      <trkpt lat="43.67181" lon="2.00094">
        <ele>208.92</ele>
        <time>2015-05-16T12:36:34Z</time>
      </trkpt>
      <trkpt lat="43.67161" lon="2.00079">
        <ele>208.42</ele>
        <time>2015-05-16T12:36:53Z</time>
      </trkpt>
      <trkpt lat="43.67139" lon="2.00063">
        <ele>208.52</ele>
        <time>2015-05-16T12:37:13Z</time>
      </trkpt>
      <trkpt lat="43.6713" lon="2.00056">
        <ele>209.4</ele>
        <time>2015-05-16T12:37:33Z</time>
      </trkpt>
      <trkpt lat="43.6713" lon="2.00054">
        <ele>209.49</ele>
        <time>2015-05-16T12:38:02Z</time>
      </trkpt>
      <trkpt lat="43.67127" lon="2.00049">
        <ele>209.56</ele>
        <time>2015-05-16T12:38:28Z</time>
      </trkpt>
      <trkpt lat="43.67125" lon="2.00047">
        <ele>209.88</ele>
        <time>2015-05-16T12:38:54Z</time>
      </trkpt>
      <trkpt lat="43.67116" lon="2.00043">
        <ele>209.48</ele>
        <time>2015-05-16T12:39:17Z</time>
      </trkpt>
      <trkpt lat="43.671" lon="2.00029">
        <ele>208.54</ele>
        <time>2015-05-16T12:39:35Z</time>
      </trkpt>
      <trkpt lat="43.67083" lon="2.00014">
        <ele>208.04</ele>
        <time>2015-05-16T12:39:51Z</time>
      </trkpt>
      <trkpt lat="43.67066" lon="2.00002">
        <ele>207.57</ele>
        <time>2015-05-16T12:40:09Z</time>
      </trkpt>
      <trkpt lat="43.67046" lon="1.99987">
        <ele>206.74</ele>
        <time>2015-05-16T12:40:25Z</time>
      </trkpt>
      <trkpt lat="43.67026" lon="1.99972">
        <ele>206.38</ele>
        <time>2015-05-16T12:40:45Z</time>
      </trkpt>
      <trkpt lat="43.67009" lon="1.99957">
        <ele>206.46</ele>
        <time>2015-05-16T12:41:02Z</time>
      </trkpt>
      <trkpt lat="43.66989" lon="1.99942">
        <ele>206.57</ele>
        <time>2015-05-16T12:41:21Z</time>
      </trkpt>
      <trkpt lat="43.66968" lon="1.99924">
        <ele>206.24</ele>
        <time>2015-05-16T12:41:41Z</time>
      </trkpt>
      <trkpt lat="43.66952" lon="1.99913">
        <ele>206.19</ele>
        <time>2015-05-16T12:41:57Z</time>
      </trkpt>
      <trkpt lat="43.66935" lon="1.999">
        <ele>205.73</ele>
        <time>2015-05-16T12:42:15Z</time>
      </trkpt>
      <trkpt lat="43.66922" lon="1.99889">
        <ele>205.44</ele>
        <time>2015-05-16T12:42:31Z</time>
      </trkpt>
      <trkpt lat="43.66905" lon="1.99872">
        <ele>205.43</ele>
        <time>2015-05-16T12:42:50Z</time>
      </trkpt>
      <trkpt lat="43.6689" lon="1.99857">
        <ele>204.14</ele>
        <time>2015-05-16T12:43:13Z</time>
      </trkpt>
      <trkpt lat="43.66872" lon="1.99846">
        <ele>200.96</ele>
        <time>2015-05-16T12:43:32Z</time>
      </trkpt>
      <trkpt lat="43.66858" lon="1.99834">
        <ele>197.79</ele>
        <time>2015-05-16T12:43:51Z</time>
      </trkpt>
      <trkpt lat="43.66843" lon="1.99828">
        <ele>194.74</ele>
        <time>2015-05-16T12:44:06Z</time>
      </trkpt>
      <trkpt lat="43.6683" lon="1.99816">
        <ele>191.71</ele>
        <time>2015-05-16T12:44:20Z</time>
      </trkpt>
      <trkpt lat="43.66813" lon="1.99786">
        <ele>189.58</ele>
        <time>2015-05-16T12:44:42Z</time>
      </trkpt>
      <trkpt lat="43.66804" lon="1.99759">
        <ele>190.33</ele>
        <time>2015-05-16T12:45:03Z</time>
      </trkpt>
      <trkpt lat="43.66797" lon="1.99735">
        <ele>189.49</ele>
        <time>2015-05-16T12:45:21Z</time>
      </trkpt>
      <trkpt lat="43.66786" lon="1.99712">
        <ele>187.34</ele>
        <time>2015-05-16T12:45:39Z</time>
      </trkpt>
      <trkpt lat="43.66773" lon="1.99696">
        <ele>185.56</ele>
        <time>2015-05-16T12:45:55Z</time>
      </trkpt>
      <trkpt lat="43.66769" lon="1.99691">
        <ele>185.34</ele>
        <time>2015-05-16T12:46:00Z</time>
      </trkpt>
      <trkpt lat="43.66758" lon="1.9966">
        <ele>184.16</ele>
        <time>2015-05-16T12:46:20Z</time>
      </trkpt>
      <trkpt lat="43.66755" lon="1.99615">
        <ele>184.06</ele>
        <time>2015-05-16T12:46:38Z</time>
      </trkpt>
      <trkpt lat="43.66753" lon="1.99592">
        <ele>183.46</ele>
        <time>2015-05-16T12:46:59Z</time>
      </trkpt>
      <trkpt lat="43.66754" lon="1.99584">
        <ele>183.68</ele>
        <time>2015-05-16T12:47:26Z</time>
      </trkpt>
      <trkpt lat="43.66753" lon="1.99566">
        <ele>182.51</ele>
        <time>2015-05-16T12:47:41Z</time>
      </trkpt>
      <trkpt lat="43.66744" lon="1.99551">
        <ele>180.15</ele>
        <time>2015-05-16T12:48:00Z</time>
      </trkpt>
      <trkpt lat="43.66726" lon="1.99544">
        <ele>177.13</ele>
        <time>2015-05-16T12:48:21Z</time>
      </trkpt>
      <trkpt lat="43.66713" lon="1.99538">
        <ele>174.88</ele>
        <time>2015-05-16T12:48:44Z</time>
      </trkpt>
      <trkpt lat="43.66707" lon="1.99535">
        <ele>175.29</ele>
        <time>2015-05-16T12:49:03Z</time>
      </trkpt>
      <trkpt lat="43.66702" lon="1.99531">
        <ele>175.39</ele>
        <time>2015-05-16T12:49:29Z</time>
      </trkpt>
      <trkpt lat="43.66691" lon="1.99529">
        <ele>174.43</ele>
        <time>2015-05-16T12:49:43Z</time>
      </trkpt>
      <trkpt lat="43.66676" lon="1.99529">
        <ele>172.43</ele>
        <time>2015-05-16T12:49:59Z</time>
      </trkpt>
      <trkpt lat="43.66656" lon="1.99531">
        <ele>169.99</ele>
        <time>2015-05-16T12:50:19Z</time>
      </trkpt>
      <trkpt lat="43.66635" lon="1.99534">
        <ele>167.86</ele>
        <time>2015-05-16T12:50:35Z</time>
      </trkpt>
      <trkpt lat="43.66617" lon="1.99539">
        <ele>166.58</ele>
        <time>2015-05-16T12:50:50Z</time>
      </trkpt>
      <trkpt lat="43.66597" lon="1.99544">
        <ele>163.82</ele>
        <time>2015-05-16T12:51:07Z</time>
      </trkpt>
      <trkpt lat="43.66575" lon="1.99545">
        <ele>160.77</ele>
        <time>2015-05-16T12:51:25Z</time>
      </trkpt>
      <trkpt lat="43.66565" lon="1.99545">
        <ele>159.97</ele>
        <time>2015-05-16T12:51:33Z</time>
      </trkpt>
      <trkpt lat="43.6656" lon="1.99544">
        <ele>159.63</ele>
        <time>2015-05-16T12:51:37Z</time>
      </trkpt>
      <trkpt lat="43.66531" lon="1.99532">
        <ele>158.08</ele>
        <time>2015-05-16T12:51:59Z</time>
      </trkpt>
      <trkpt lat="43.66516" lon="1.99512">
        <ele>157.74</ele>
        <time>2015-05-16T12:52:16Z</time>
      </trkpt>
      <trkpt lat="43.66511" lon="1.99506">
        <ele>157.67</ele>
        <time>2015-05-16T12:52:18Z</time>
      </trkpt>
      <trkpt lat="43.66506" lon="1.99502">
        <ele>157.38</ele>
        <time>2015-05-16T12:52:24Z</time>
      </trkpt>
      <trkpt lat="43.66488" lon="1.99478">
        <ele>156.39</ele>
        <time>2015-05-16T12:52:45Z</time>
      </trkpt>
      <trkpt lat="43.6647" lon="1.9946">
        <ele>156.15</ele>
        <time>2015-05-16T12:53:05Z</time>
      </trkpt>
      <trkpt lat="43.66464" lon="1.99456">
        <ele>156.51</ele>
        <time>2015-05-16T12:53:12Z</time>
      </trkpt>
      <trkpt lat="43.6646" lon="1.99453">
        <ele>156.38</ele>
        <time>2015-05-16T12:53:17Z</time>
      </trkpt>
      <trkpt lat="43.66442" lon="1.99442">
        <ele>156.12</ele>
        <time>2015-05-16T12:53:35Z</time>
      </trkpt>
      <trkpt lat="43.66422" lon="1.99432">
        <ele>155.45</ele>
        <time>2015-05-16T12:53:54Z</time>
      </trkpt>
      <trkpt lat="43.66402" lon="1.9942">
        <ele>155.32</ele>
        <time>2015-05-16T12:54:12Z</time>
      </trkpt>
      <trkpt lat="43.66386" lon="1.99413">
        <ele>154.4</ele>
        <time>2015-05-16T12:54:29Z</time>
      </trkpt>
      <trkpt lat="43.66375" lon="1.99409">
        <ele>154.08</ele>
        <time>2015-05-16T12:54:40Z</time>
      </trkpt>
      <trkpt lat="43.66354" lon="1.99397">
        <ele>152.77</ele>
        <time>2015-05-16T12:55:00Z</time>
      </trkpt>
      <trkpt lat="43.66331" lon="1.99376">
        <ele>152.09</ele>
        <time>2015-05-16T12:55:22Z</time>
      </trkpt>
      <trkpt lat="43.66326" lon="1.99371">
        <ele>152.15</ele>
        <time>2015-05-16T12:55:27Z</time>
      </trkpt>
      <trkpt lat="43.66302" lon="1.99347">
        <ele>151.91</ele>
        <time>2015-05-16T12:55:46Z</time>
      </trkpt>
      <trkpt lat="43.66277" lon="1.99325">
        <ele>151.45</ele>
        <time>2015-05-16T12:56:07Z</time>
      </trkpt>
      <trkpt lat="43.6626" lon="1.99312">
        <ele>151.01</ele>
        <time>2015-05-16T12:56:23Z</time>
      </trkpt>
      <trkpt lat="43.66259" lon="1.99311">
        <ele>151.04</ele>
        <time>2015-05-16T12:56:24Z</time>
      </trkpt>
      <trkpt lat="43.66232" lon="1.99305">
        <ele>150.95</ele>
        <time>2015-05-16T12:56:43Z</time>
      </trkpt>
      <trkpt lat="43.66218" lon="1.99306">
        <ele>151.06</ele>
        <time>2015-05-16T12:56:58Z</time>
      </trkpt>
      <trkpt lat="43.66215" lon="1.99305">
        <ele>151.59</ele>
        <time>2015-05-16T12:57:10Z</time>
      </trkpt>
      <trkpt lat="43.6621" lon="1.99302">
        <ele>151.69</ele>
        <time>2015-05-16T12:57:31Z</time>
      </trkpt>
      <trkpt lat="43.66208" lon="1.99302">
        <ele>151.96</ele>
        <time>2015-05-16T12:57:58Z</time>
      </trkpt>
      <trkpt lat="43.66208" lon="1.99302">
        <ele>151.68</ele>
        <time>2015-05-16T12:58:28Z</time>
      </trkpt>
      <trkpt lat="43.66203" lon="1.993">
        <ele>151.81</ele>
        <time>2015-05-16T12:58:44Z</time>
      </trkpt>
      <trkpt lat="43.662" lon="1.99281">
        <ele>152.16</ele>
        <time>2015-05-16T12:59:01Z</time>
      </trkpt>
      <trkpt lat="43.662" lon="1.99264">
        <ele>152.77</ele>
        <time>2015-05-16T12:59:14Z</time>
      </trkpt>
      <trkpt lat="43.66201" lon="1.99239">
        <ele>152.22</ele>
        <time>2015-05-16T12:59:33Z</time>
      </trkpt>
      <trkpt lat="43.66201" lon="1.99233">
        <ele>151.82</ele>
        <time>2015-05-16T12:59:37Z</time>
      </trkpt>
      <trkpt lat="43.66202" lon="1.99224">
        <ele>151.66</ele>
        <time>2015-05-16T12:59:43Z</time>
      </trkpt>
      <trkpt lat="43.66202" lon="1.99197">
        <ele>151.92</ele>
        <time>2015-05-16T12:59:59Z</time>
      </trkpt>
      <trkpt lat="43.662" lon="1.99178">
        <ele>151.86</ele>
        <time>2015-05-16T13:00:13Z</time>
      </trkpt>
      <trkpt lat="43.66198" lon="1.99171">
        <ele>151.59</ele>
        <time>2015-05-16T13:00:18Z</time>
      </trkpt>
      <trkpt lat="43.66196" lon="1.99147">
        <ele>151.73</ele>
        <time>2015-05-16T13:00:32Z</time>
      </trkpt>
      <trkpt lat="43.66191" lon="1.9913">
        <ele>151.55</ele>
        <time>2015-05-16T13:00:44Z</time>
      </trkpt>
      <trkpt lat="43.66181" lon="1.99123">
        <ele>151.2</ele>
        <time>2015-05-16T13:00:55Z</time>
      </trkpt>
      <trkpt lat="43.66162" lon="1.99118">
        <ele>150.71</ele>
        <time>2015-05-16T13:01:13Z</time>
      </trkpt>
      <trkpt lat="43.66144" lon="1.99112">
        <ele>149.89</ele>
        <time>2015-05-16T13:01:30Z</time>
      </trkpt>
      <trkpt lat="43.66124" lon="1.99109">
        <ele>149.65</ele>
        <time>2015-05-16T13:01:50Z</time>
      </trkpt>
      <trkpt lat="43.66095" lon="1.99108">
        <ele>149.35</ele>
        <time>2015-05-16T13:02:14Z</time>
      </trkpt>
      <trkpt lat="43.66067" lon="1.99104">
        <ele>149.43</ele>
        <time>2015-05-16T13:02:38Z</time>
      </trkpt>
      <trkpt lat="43.66048" lon="1.99096">
        <ele>149.02</ele>
        <time>2015-05-16T13:02:56Z</time>
      </trkpt>
      <trkpt lat="43.66023" lon="1.99085">
        <ele>149.16</ele>
        <time>2015-05-16T13:03:20Z</time>
      </trkpt>
      <trkpt lat="43.66002" lon="1.99074">
        <ele>148.46</ele>
        <time>2015-05-16T13:03:40Z</time>
      </trkpt>
      <trkpt lat="43.65981" lon="1.99063">
        <ele>148.56</ele>
        <time>2015-05-16T13:04:00Z</time>
      </trkpt>
      <trkpt lat="43.6598" lon="1.99063">
        <ele>148.65</ele>
        <time>2015-05-16T13:04:01Z</time>
      </trkpt>
      <trkpt lat="43.65957" lon="1.99052">
        <ele>147.98</ele>
        <time>2015-05-16T13:04:22Z</time>
      </trkpt>
      <trkpt lat="43.6593" lon="1.9904">
        <ele>146.79</ele>
        <time>2015-05-16T13:04:45Z</time>
      </trkpt>
      <trkpt lat="43.65929" lon="1.99039">
        <ele>146.8</ele>
        <time>2015-05-16T13:04:46Z</time>
      </trkpt>
      <trkpt lat="43.65925" lon="1.99019">
        <ele>146.51</ele>
        <time>2015-05-16T13:05:02Z</time>
      </trkpt>
      <trkpt lat="43.65931" lon="1.98989">
        <ele>146.65</ele>
        <time>2015-05-16T13:05:22Z</time>
      </trkpt>
      <trkpt lat="43.65939" lon="1.98963">
        <ele>146.1</ele>
        <time>2015-05-16T13:05:41Z</time>
      </trkpt>
      <trkpt lat="43.65946" lon="1.98938">
        <ele>145.5</ele>
        <time>2015-05-16T13:05:58Z</time>
      </trkpt>
      <trkpt lat="43.65955" lon="1.98913">
        <ele>146.07</ele>
        <time>2015-05-16T13:06:15Z</time>
      </trkpt>
      <trkpt lat="43.65966" lon="1.98885">
        <ele>146.26</ele>
        <time>2015-05-16T13:06:34Z</time>
      </trkpt>
      <trkpt lat="43.65972" lon="1.9886">
        <ele>146.16</ele>
        <time>2015-05-16T13:06:52Z</time>
      </trkpt>
      <trkpt lat="43.65972" lon="1.98839">
        <ele>145.45</ele>
        <time>2015-05-16T13:07:06Z</time>
      </trkpt>
      <trkpt lat="43.65974" lon="1.98809">
        <ele>144.76</ele>
        <time>2015-05-16T13:07:27Z</time>
      </trkpt>
      <trkpt lat="43.65976" lon="1.98786">
        <ele>144.98</ele>
        <time>2015-05-16T13:07:43Z</time>
      </trkpt>
      <trkpt lat="43.65973" lon="1.98761">
        <ele>144.3</ele>
        <time>2015-05-16T13:08:02Z</time>
      </trkpt>
      <trkpt lat="43.65969" lon="1.98745">
        <ele>143.63</ele>
        <time>2015-05-16T13:08:16Z</time>
      </trkpt>
      <trkpt lat="43.65957" lon="1.98722">
        <ele>144.29</ele>
        <time>2015-05-16T13:08:32Z</time>
      </trkpt>
      <trkpt lat="43.6595" lon="1.98705">
        <ele>144.04</ele>
        <time>2015-05-16T13:08:51Z</time>
      </trkpt>
      <trkpt lat="43.65941" lon="1.98682">
        <ele>144</ele>
        <time>2015-05-16T13:09:09Z</time>
      </trkpt>
      <trkpt lat="43.65931" lon="1.98657">
        <ele>144.11</ele>
        <time>2015-05-16T13:09:27Z</time>
      </trkpt>
      <trkpt lat="43.6592" lon="1.98633">
        <ele>143.81</ele>
        <time>2015-05-16T13:09:45Z</time>
      </trkpt>
      <trkpt lat="43.65911" lon="1.98613">
        <ele>143.28</ele>
        <time>2015-05-16T13:10:01Z</time>
      </trkpt>
      <trkpt lat="43.65909" lon="1.98611">
        <ele>143.18</ele>
        <time>2015-05-16T13:10:04Z</time>
      </trkpt>
      <trkpt lat="43.65906" lon="1.98606">
        <ele>143.1</ele>
        <time>2015-05-16T13:10:08Z</time>
      </trkpt>
      <trkpt lat="43.65895" lon="1.98583">
        <ele>143.39</ele>
        <time>2015-05-16T13:10:26Z</time>
      </trkpt>
      <trkpt lat="43.65884" lon="1.98569">
        <ele>143.36</ele>
        <time>2015-05-16T13:10:41Z</time>
      </trkpt>
      <trkpt lat="43.65881" lon="1.9856">
        <ele>143.15</ele>
        <time>2015-05-16T13:10:48Z</time>
      </trkpt>
      <trkpt lat="43.65869" lon="1.98544">
        <ele>142.79</ele>
        <time>2015-05-16T13:11:04Z</time>
      </trkpt>
      <trkpt lat="43.65845" lon="1.98524">
        <ele>142.51</ele>
        <time>2015-05-16T13:11:23Z</time>
      </trkpt>
      <trkpt lat="43.65827" lon="1.98517">
        <ele>142.73</ele>
        <time>2015-05-16T13:11:39Z</time>
      </trkpt>
      <trkpt lat="43.6581" lon="1.98511">
        <ele>142.67</ele>
        <time>2015-05-16T13:11:55Z</time>
      </trkpt>
      <trkpt lat="43.658" lon="1.98504">
        <ele>142.65</ele>
        <time>2015-05-16T13:12:08Z</time>
      </trkpt>
      <trkpt lat="43.65787" lon="1.98488">
        <ele>142.25</ele>
        <time>2015-05-16T13:12:27Z</time>
      </trkpt>
      <trkpt lat="43.65774" lon="1.98462">
        <ele>141.86</ele>
        <time>2015-05-16T13:12:48Z</time>
      </trkpt>
      <trkpt lat="43.65765" lon="1.98445">
        <ele>142.38</ele>
        <time>2015-05-16T13:13:04Z</time>
      </trkpt>
      <trkpt lat="43.65753" lon="1.98427">
        <ele>142.17</ele>
        <time>2015-05-16T13:13:21Z</time>
      </trkpt>
      <trkpt lat="43.65742" lon="1.9841">
        <ele>142.73</ele>
        <time>2015-05-16T13:13:39Z</time>
      </trkpt>
      <trkpt lat="43.65729" lon="1.9839">
        <ele>142.38</ele>
        <time>2015-05-16T13:13:57Z</time>
      </trkpt>
      <trkpt lat="43.65719" lon="1.98371">
        <ele>141.84</ele>
        <time>2015-05-16T13:14:13Z</time>
      </trkpt>
      <trkpt lat="43.65709" lon="1.98353">
        <ele>142.19</ele>
        <time>2015-05-16T13:14:31Z</time>
      </trkpt>
      <trkpt lat="43.65696" lon="1.98332">
        <ele>142.02</ele>
        <time>2015-05-16T13:14:48Z</time>
      </trkpt>
      <trkpt lat="43.65694" lon="1.9833">
        <ele>142.04</ele>
        <time>2015-05-16T13:14:50Z</time>
      </trkpt>
      <trkpt lat="43.65673" lon="1.98296">
        <ele>142.01</ele>
        <time>2015-05-16T13:15:11Z</time>
      </trkpt>
      <trkpt lat="43.65658" lon="1.98267">
        <ele>142.19</ele>
        <time>2015-05-16T13:15:31Z</time>
      </trkpt>
      <trkpt lat="43.65652" lon="1.98239">
        <ele>141.25</ele>
        <time>2015-05-16T13:15:50Z</time>
      </trkpt>
      <trkpt lat="43.65644" lon="1.98214">
        <ele>141.62</ele>
        <time>2015-05-16T13:16:07Z</time>
      </trkpt>
      <trkpt lat="43.65636" lon="1.98189">
        <ele>141.86</ele>
        <time>2015-05-16T13:16:26Z</time>
      </trkpt>
      <trkpt lat="43.6563" lon="1.98162">
        <ele>141.64</ele>
        <time>2015-05-16T13:16:45Z</time>
      </trkpt>
      <trkpt lat="43.65629" lon="1.98134">
        <ele>141.84</ele>
        <time>2015-05-16T13:17:04Z</time>
      </trkpt>
      <trkpt lat="43.65635" lon="1.98111">
        <ele>142.06</ele>
        <time>2015-05-16T13:17:22Z</time>
      </trkpt>
      <trkpt lat="43.65642" lon="1.98098">
        <ele>142.29</ele>
        <time>2015-05-16T13:17:39Z</time>
      </trkpt>
      <trkpt lat="43.65645" lon="1.98088">
        <ele>141.98</ele>
        <time>2015-05-16T13:17:58Z</time>
      </trkpt>
      <trkpt lat="43.65648" lon="1.98083">
        <ele>143.07</ele>
        <time>2015-05-16T13:18:29Z</time>
      </trkpt>
      <trkpt lat="43.6565" lon="1.98068">
        <ele>142.97</ele>
        <time>2015-05-16T13:18:42Z</time>
      </trkpt>
      <trkpt lat="43.65639" lon="1.98049">
        <ele>142.15</ele>
        <time>2015-05-16T13:19:00Z</time>
      </trkpt>
      <trkpt lat="43.65625" lon="1.98036">
        <ele>141.91</ele>
        <time>2015-05-16T13:19:17Z</time>
      </trkpt>
      <trkpt lat="43.65614" lon="1.98023">
        <ele>141.43</ele>
        <time>2015-05-16T13:19:33Z</time>
      </trkpt>
      <trkpt lat="43.656" lon="1.9801">
        <ele>141.95</ele>
        <time>2015-05-16T13:19:54Z</time>
      </trkpt>
      <trkpt lat="43.65595" lon="1.98003">
        <ele>141.74</ele>
        <time>2015-05-16T13:19:58Z</time>
      </trkpt>
      <trkpt lat="43.65583" lon="1.97988">
        <ele>141.76</ele>
        <time>2015-05-16T13:20:13Z</time>
      </trkpt>
      <trkpt lat="43.65567" lon="1.97964">
        <ele>141.83</ele>
        <time>2015-05-16T13:20:34Z</time>
      </trkpt>
      <trkpt lat="43.65554" lon="1.97953">
        <ele>142</ele>
        <time>2015-05-16T13:20:53Z</time>
      </trkpt>
      <trkpt lat="43.65546" lon="1.97942">
        <ele>141.64</ele>
        <time>2015-05-16T13:21:11Z</time>
      </trkpt>
      <trkpt lat="43.65541" lon="1.97935">
        <ele>141.81</ele>
        <time>2015-05-16T13:21:33Z</time>
      </trkpt>
      <trkpt lat="43.65529" lon="1.97924">
        <ele>141.79</ele>
        <time>2015-05-16T13:21:51Z</time>
      </trkpt>
      <trkpt lat="43.65519" lon="1.97912">
        <ele>141.56</ele>
        <time>2015-05-16T13:22:06Z</time>
      </trkpt>
      <trkpt lat="43.65513" lon="1.97905">
        <ele>141.91</ele>
        <time>2015-05-16T13:22:14Z</time>
      </trkpt>
      <trkpt lat="43.65508" lon="1.97899">
        <ele>141.87</ele>
        <time>2015-05-16T13:22:21Z</time>
      </trkpt>
      <trkpt lat="43.65492" lon="1.97881">
        <ele>141.63</ele>
        <time>2015-05-16T13:22:38Z</time>
      </trkpt>
      <trkpt lat="43.65484" lon="1.97872">
        <ele>141.94</ele>
        <time>2015-05-16T13:22:48Z</time>
      </trkpt>
      <trkpt lat="43.65473" lon="1.97862">
        <ele>142.15</ele>
        <time>2015-05-16T13:23:04Z</time>
      </trkpt>
      <trkpt lat="43.65464" lon="1.97851">
        <ele>142.1</ele>
        <time>2015-05-16T13:23:14Z</time>
      </trkpt>
      <trkpt lat="43.65446" lon="1.97828">
        <ele>142.52</ele>
        <time>2015-05-16T13:23:33Z</time>
      </trkpt>
      <trkpt lat="43.65444" lon="1.97824">
        <ele>142.58</ele>
        <time>2015-05-16T13:23:37Z</time>
      </trkpt>
      <trkpt lat="43.65434" lon="1.97806">
        <ele>142.64</ele>
        <time>2015-05-16T13:23:53Z</time>
      </trkpt>
      <trkpt lat="43.6544" lon="1.97785">
        <ele>142.79</ele>
        <time>2015-05-16T13:24:08Z</time>
      </trkpt>
      <trkpt lat="43.6545" lon="1.97766">
        <ele>142.61</ele>
        <time>2015-05-16T13:24:25Z</time>
      </trkpt>
      <trkpt lat="43.65456" lon="1.97763">
        <ele>142.48</ele>
        <time>2015-05-16T13:24:39Z</time>
      </trkpt>
      <trkpt lat="43.6546" lon="1.97766">
        <ele>142.75</ele>
        <time>2015-05-16T13:25:01Z</time>
      </trkpt>
      <trkpt lat="43.6546" lon="1.97766">
        <ele>142.84</ele>
        <time>2015-05-16T13:25:20Z</time>
      </trkpt>
      <trkpt lat="43.6546" lon="1.97766">
        <ele>142.88</ele>
        <time>2015-05-16T13:25:22Z</time>
      </trkpt>
    </trkseg>
  </trk>
</gpx>